<?xml version="1.0" encoding="UTF-8" standalone="no" ?>
<gpx xmlns="http://www.topografix.com/GPX/1/1" xmlns:xsi="http://www.w3.org/2001/XMLSchema-instance" xsi:schemaLocation="http://www.topografix.com/GPX/1/1 http://www.topografix.com/GPX/1/1/gpx.xsd" version="1.1" creator="VisuGPX - https://www.visugpx.com">
  <metadata>
    <name>Lacs de Clairvaux</name>
    <desc><![CDATA[circuit autour des lacs]]></desc>
  </metadata>
  <trk>
    <name><![CDATA[26-JUIL-13 16:55:40]]></name>
    <trkseg>
      <trkpt lat="46.55909" lon="5.74577">
        <ele>552.41</ele>
        <time>2013-07-26T12:37:30Z</time>
      </trkpt>
      <trkpt lat="46.55908" lon="5.74577">
        <ele>552.41</ele>
        <time>2013-07-26T12:37:31Z</time>
      </trkpt>
      <trkpt lat="46.55911" lon="5.74579">
        <ele>552.41</ele>
        <time>2013-07-26T12:37:47Z</time>
      </trkpt>
      <trkpt lat="46.55913" lon="5.74578">
        <ele>552.9</ele>
        <time>2013-07-26T12:38:04Z</time>
      </trkpt>
      <trkpt lat="46.55913" lon="5.74577">
        <ele>552.9</ele>
        <time>2013-07-26T12:38:08Z</time>
      </trkpt>
      <trkpt lat="46.55917" lon="5.74571">
        <ele>552.41</ele>
        <time>2013-07-26T12:38:12Z</time>
      </trkpt>
      <trkpt lat="46.5592" lon="5.74564">
        <ele>553.38</ele>
        <time>2013-07-26T12:38:15Z</time>
      </trkpt>
      <trkpt lat="46.55935" lon="5.74559">
        <ele>553.86</ele>
        <time>2013-07-26T12:38:20Z</time>
      </trkpt>
      <trkpt lat="46.5597" lon="5.74536">
        <ele>556.26</ele>
        <time>2013-07-26T12:38:33Z</time>
      </trkpt>
      <trkpt lat="46.56" lon="5.7449">
        <ele>559.14</ele>
        <time>2013-07-26T12:38:50Z</time>
      </trkpt>
      <trkpt lat="46.56026" lon="5.74454">
        <ele>559.62</ele>
        <time>2013-07-26T12:39:02Z</time>
      </trkpt>
      <trkpt lat="46.56103" lon="5.74433">
        <ele>558.66</ele>
        <time>2013-07-26T12:39:16Z</time>
      </trkpt>
      <trkpt lat="46.56128" lon="5.74424">
        <ele>556.74</ele>
        <time>2013-07-26T12:39:20Z</time>
      </trkpt>
      <trkpt lat="46.56246" lon="5.74391">
        <ele>554.82</ele>
        <time>2013-07-26T12:39:37Z</time>
      </trkpt>
      <trkpt lat="46.56352" lon="5.74391">
        <ele>550.97</ele>
        <time>2013-07-26T12:39:52Z</time>
      </trkpt>
      <trkpt lat="46.56405" lon="5.744">
        <ele>550.01</ele>
        <time>2013-07-26T12:39:59Z</time>
      </trkpt>
      <trkpt lat="46.56526" lon="5.74418">
        <ele>548.57</ele>
        <time>2013-07-26T12:40:15Z</time>
      </trkpt>
      <trkpt lat="46.56647" lon="5.74436">
        <ele>548.57</ele>
        <time>2013-07-26T12:40:32Z</time>
      </trkpt>
      <trkpt lat="46.5674" lon="5.7445">
        <ele>547.61</ele>
        <time>2013-07-26T12:40:47Z</time>
      </trkpt>
      <trkpt lat="46.56839" lon="5.74478">
        <ele>547.13</ele>
        <time>2013-07-26T12:41:03Z</time>
      </trkpt>
      <trkpt lat="46.56919" lon="5.74502">
        <ele>546.65</ele>
        <time>2013-07-26T12:41:16Z</time>
      </trkpt>
      <trkpt lat="46.57028" lon="5.74537">
        <ele>545.69</ele>
        <time>2013-07-26T12:41:34Z</time>
      </trkpt>
      <trkpt lat="46.57152" lon="5.74577">
        <ele>544.72</ele>
        <time>2013-07-26T12:41:55Z</time>
      </trkpt>
      <trkpt lat="46.57239" lon="5.74607">
        <ele>545.2</ele>
        <time>2013-07-26T12:42:12Z</time>
      </trkpt>
      <trkpt lat="46.573" lon="5.74638">
        <ele>544.72</ele>
        <time>2013-07-26T12:42:25Z</time>
      </trkpt>
      <trkpt lat="46.57307" lon="5.74647">
        <ele>544.72</ele>
        <time>2013-07-26T12:42:35Z</time>
      </trkpt>
      <trkpt lat="46.57307" lon="5.74646">
        <ele>544.72</ele>
        <time>2013-07-26T12:42:36Z</time>
      </trkpt>
      <trkpt lat="46.57321" lon="5.74652">
        <ele>544.24</ele>
        <time>2013-07-26T12:42:42Z</time>
      </trkpt>
      <trkpt lat="46.57343" lon="5.74664">
        <ele>544.72</ele>
        <time>2013-07-26T12:42:48Z</time>
      </trkpt>
      <trkpt lat="46.57356" lon="5.74678">
        <ele>544.24</ele>
        <time>2013-07-26T12:42:52Z</time>
      </trkpt>
      <trkpt lat="46.574" lon="5.74727">
        <ele>544.24</ele>
        <time>2013-07-26T12:43:07Z</time>
      </trkpt>
      <trkpt lat="46.57401" lon="5.74735">
        <ele>544.72</ele>
        <time>2013-07-26T12:43:09Z</time>
      </trkpt>
      <trkpt lat="46.574" lon="5.74738">
        <ele>544.24</ele>
        <time>2013-07-26T12:43:10Z</time>
      </trkpt>
      <trkpt lat="46.57403" lon="5.74752">
        <ele>543.28</ele>
        <time>2013-07-26T12:43:13Z</time>
      </trkpt>
      <trkpt lat="46.57406" lon="5.74766">
        <ele>543.76</ele>
        <time>2013-07-26T12:43:16Z</time>
      </trkpt>
      <trkpt lat="46.57403" lon="5.7478">
        <ele>544.24</ele>
        <time>2013-07-26T12:43:20Z</time>
      </trkpt>
      <trkpt lat="46.57385" lon="5.74789">
        <ele>542.32</ele>
        <time>2013-07-26T12:43:25Z</time>
      </trkpt>
      <trkpt lat="46.57391" lon="5.74845">
        <ele>542.32</ele>
        <time>2013-07-26T12:43:35Z</time>
      </trkpt>
      <trkpt lat="46.57403" lon="5.74952">
        <ele>542.8</ele>
        <time>2013-07-26T12:43:53Z</time>
      </trkpt>
      <trkpt lat="46.57409" lon="5.75048">
        <ele>545.69</ele>
        <time>2013-07-26T12:44:11Z</time>
      </trkpt>
      <trkpt lat="46.57403" lon="5.75088">
        <ele>546.17</ele>
        <time>2013-07-26T12:44:22Z</time>
      </trkpt>
      <trkpt lat="46.57409" lon="5.75094">
        <ele>546.17</ele>
        <time>2013-07-26T12:44:28Z</time>
      </trkpt>
      <trkpt lat="46.57443" lon="5.75077">
        <ele>549.53</ele>
        <time>2013-07-26T12:44:42Z</time>
      </trkpt>
      <trkpt lat="46.57481" lon="5.75056">
        <ele>551.45</ele>
        <time>2013-07-26T12:44:58Z</time>
      </trkpt>
      <trkpt lat="46.57494" lon="5.75054">
        <ele>552.9</ele>
        <time>2013-07-26T12:45:05Z</time>
      </trkpt>
      <trkpt lat="46.5751" lon="5.75073">
        <ele>555.3</ele>
        <time>2013-07-26T12:45:15Z</time>
      </trkpt>
      <trkpt lat="46.5751" lon="5.75075">
        <ele>555.78</ele>
        <time>2013-07-26T12:45:16Z</time>
      </trkpt>
      <trkpt lat="46.57492" lon="5.75105">
        <ele>555.3</ele>
        <time>2013-07-26T12:45:27Z</time>
      </trkpt>
      <trkpt lat="46.57454" lon="5.75155">
        <ele>556.74</ele>
        <time>2013-07-26T12:45:43Z</time>
      </trkpt>
      <trkpt lat="46.57419" lon="5.75197">
        <ele>557.7</ele>
        <time>2013-07-26T12:45:56Z</time>
      </trkpt>
      <trkpt lat="46.57378" lon="5.75247">
        <ele>559.14</ele>
        <time>2013-07-26T12:46:11Z</time>
      </trkpt>
      <trkpt lat="46.57334" lon="5.75297">
        <ele>560.59</ele>
        <time>2013-07-26T12:46:27Z</time>
      </trkpt>
      <trkpt lat="46.57322" lon="5.75317">
        <ele>561.55</ele>
        <time>2013-07-26T12:46:32Z</time>
      </trkpt>
      <trkpt lat="46.5731" lon="5.75339">
        <ele>561.07</ele>
        <time>2013-07-26T12:46:38Z</time>
      </trkpt>
      <trkpt lat="46.57303" lon="5.75345">
        <ele>561.55</ele>
        <time>2013-07-26T12:46:49Z</time>
      </trkpt>
      <trkpt lat="46.57294" lon="5.75353">
        <ele>561.55</ele>
        <time>2013-07-26T12:47:13Z</time>
      </trkpt>
      <trkpt lat="46.57255" lon="5.754">
        <ele>562.51</ele>
        <time>2013-07-26T12:47:28Z</time>
      </trkpt>
      <trkpt lat="46.57213" lon="5.75445">
        <ele>563.47</ele>
        <time>2013-07-26T12:47:44Z</time>
      </trkpt>
      <trkpt lat="46.57197" lon="5.75443">
        <ele>562.99</ele>
        <time>2013-07-26T12:47:54Z</time>
      </trkpt>
      <trkpt lat="46.57196" lon="5.7544">
        <ele>563.47</ele>
        <time>2013-07-26T12:48:10Z</time>
      </trkpt>
      <trkpt lat="46.57171" lon="5.75435">
        <ele>562.99</ele>
        <time>2013-07-26T12:48:20Z</time>
      </trkpt>
      <trkpt lat="46.57168" lon="5.75437">
        <ele>563.47</ele>
        <time>2013-07-26T12:48:21Z</time>
      </trkpt>
      <trkpt lat="46.57107" lon="5.75467">
        <ele>563.95</ele>
        <time>2013-07-26T12:48:39Z</time>
      </trkpt>
      <trkpt lat="46.57082" lon="5.75473">
        <ele>562.99</ele>
        <time>2013-07-26T12:48:50Z</time>
      </trkpt>
      <trkpt lat="46.57082" lon="5.75472">
        <ele>562.51</ele>
        <time>2013-07-26T12:48:52Z</time>
      </trkpt>
      <trkpt lat="46.57081" lon="5.75477">
        <ele>563.95</ele>
        <time>2013-07-26T12:49:01Z</time>
      </trkpt>
      <trkpt lat="46.57053" lon="5.7549">
        <ele>563.95</ele>
        <time>2013-07-26T12:49:12Z</time>
      </trkpt>
      <trkpt lat="46.57011" lon="5.7551">
        <ele>564.91</ele>
        <time>2013-07-26T12:49:24Z</time>
      </trkpt>
      <trkpt lat="46.56969" lon="5.75529">
        <ele>565.39</ele>
        <time>2013-07-26T12:49:36Z</time>
      </trkpt>
      <trkpt lat="46.56911" lon="5.75556">
        <ele>565.87</ele>
        <time>2013-07-26T12:49:50Z</time>
      </trkpt>
      <trkpt lat="46.56868" lon="5.75579">
        <ele>566.83</ele>
        <time>2013-07-26T12:50:00Z</time>
      </trkpt>
      <trkpt lat="46.56845" lon="5.756">
        <ele>565.87</ele>
        <time>2013-07-26T12:50:06Z</time>
      </trkpt>
      <trkpt lat="46.56806" lon="5.75646">
        <ele>566.35</ele>
        <time>2013-07-26T12:50:17Z</time>
      </trkpt>
      <trkpt lat="46.56746" lon="5.75685">
        <ele>566.35</ele>
        <time>2013-07-26T12:50:31Z</time>
      </trkpt>
      <trkpt lat="46.56737" lon="5.75687">
        <ele>567.32</ele>
        <time>2013-07-26T12:50:33Z</time>
      </trkpt>
      <trkpt lat="46.56659" lon="5.75718">
        <ele>569.72</ele>
        <time>2013-07-26T12:50:54Z</time>
      </trkpt>
      <trkpt lat="46.56611" lon="5.75744">
        <ele>572.6</ele>
        <time>2013-07-26T12:51:09Z</time>
      </trkpt>
      <trkpt lat="46.56566" lon="5.75773">
        <ele>574.04</ele>
        <time>2013-07-26T12:51:24Z</time>
      </trkpt>
      <trkpt lat="46.56528" lon="5.75811">
        <ele>576.93</ele>
        <time>2013-07-26T12:51:38Z</time>
      </trkpt>
      <trkpt lat="46.56494" lon="5.75848">
        <ele>578.85</ele>
        <time>2013-07-26T12:51:53Z</time>
      </trkpt>
      <trkpt lat="46.56463" lon="5.75875">
        <ele>579.81</ele>
        <time>2013-07-26T12:52:06Z</time>
      </trkpt>
      <trkpt lat="46.56455" lon="5.75881">
        <ele>578.85</ele>
        <time>2013-07-26T12:52:10Z</time>
      </trkpt>
      <trkpt lat="46.56457" lon="5.7588">
        <ele>578.85</ele>
        <time>2013-07-26T12:52:18Z</time>
      </trkpt>
      <trkpt lat="46.56455" lon="5.75881">
        <ele>578.37</ele>
        <time>2013-07-26T12:52:19Z</time>
      </trkpt>
      <trkpt lat="46.56451" lon="5.75883">
        <ele>578.37</ele>
        <time>2013-07-26T12:52:21Z</time>
      </trkpt>
      <trkpt lat="46.56459" lon="5.75885">
        <ele>578.85</ele>
        <time>2013-07-26T12:52:28Z</time>
      </trkpt>
      <trkpt lat="46.56458" lon="5.75891">
        <ele>578.85</ele>
        <time>2013-07-26T12:52:30Z</time>
      </trkpt>
      <trkpt lat="46.56445" lon="5.75911">
        <ele>581.25</ele>
        <time>2013-07-26T12:52:39Z</time>
      </trkpt>
      <trkpt lat="46.56418" lon="5.75953">
        <ele>581.73</ele>
        <time>2013-07-26T12:52:55Z</time>
      </trkpt>
      <trkpt lat="46.56399" lon="5.75996">
        <ele>583.66</ele>
        <time>2013-07-26T12:53:08Z</time>
      </trkpt>
      <trkpt lat="46.56371" lon="5.76051">
        <ele>586.06</ele>
        <time>2013-07-26T12:53:25Z</time>
      </trkpt>
      <trkpt lat="46.56347" lon="5.76097">
        <ele>587.5</ele>
        <time>2013-07-26T12:53:39Z</time>
      </trkpt>
      <trkpt lat="46.56322" lon="5.76132">
        <ele>590.39</ele>
        <time>2013-07-26T12:53:52Z</time>
      </trkpt>
      <trkpt lat="46.56279" lon="5.76154">
        <ele>592.31</ele>
        <time>2013-07-26T12:54:09Z</time>
      </trkpt>
      <trkpt lat="46.56243" lon="5.76148">
        <ele>595.19</ele>
        <time>2013-07-26T12:54:23Z</time>
      </trkpt>
      <trkpt lat="46.56211" lon="5.7612">
        <ele>597.6</ele>
        <time>2013-07-26T12:54:38Z</time>
      </trkpt>
      <trkpt lat="46.56178" lon="5.76091">
        <ele>598.56</ele>
        <time>2013-07-26T12:54:53Z</time>
      </trkpt>
      <trkpt lat="46.56135" lon="5.76067">
        <ele>601.92</ele>
        <time>2013-07-26T12:55:10Z</time>
      </trkpt>
      <trkpt lat="46.56104" lon="5.76069">
        <ele>604.33</ele>
        <time>2013-07-26T12:55:23Z</time>
      </trkpt>
      <trkpt lat="46.5609" lon="5.76087">
        <ele>604.81</ele>
        <time>2013-07-26T12:55:31Z</time>
      </trkpt>
      <trkpt lat="46.56095" lon="5.76099">
        <ele>605.29</ele>
        <time>2013-07-26T12:55:38Z</time>
      </trkpt>
      <trkpt lat="46.56096" lon="5.76109">
        <ele>607.69</ele>
        <time>2013-07-26T12:55:48Z</time>
      </trkpt>
      <trkpt lat="46.56101" lon="5.76107">
        <ele>610.09</ele>
        <time>2013-07-26T12:55:58Z</time>
      </trkpt>
      <trkpt lat="46.56108" lon="5.761">
        <ele>611.54</ele>
        <time>2013-07-26T12:56:06Z</time>
      </trkpt>
      <trkpt lat="46.56119" lon="5.76105">
        <ele>613.46</ele>
        <time>2013-07-26T12:56:19Z</time>
      </trkpt>
      <trkpt lat="46.56124" lon="5.76109">
        <ele>613.94</ele>
        <time>2013-07-26T12:56:26Z</time>
      </trkpt>
      <trkpt lat="46.56133" lon="5.76106">
        <ele>613.46</ele>
        <time>2013-07-26T12:56:32Z</time>
      </trkpt>
      <trkpt lat="46.56133" lon="5.76101">
        <ele>612.02</ele>
        <time>2013-07-26T12:56:37Z</time>
      </trkpt>
      <trkpt lat="46.56135" lon="5.76092">
        <ele>611.06</ele>
        <time>2013-07-26T12:56:52Z</time>
      </trkpt>
      <trkpt lat="46.5614" lon="5.76092">
        <ele>612.02</ele>
        <time>2013-07-26T12:57:17Z</time>
      </trkpt>
      <trkpt lat="46.56134" lon="5.76095">
        <ele>612.02</ele>
        <time>2013-07-26T12:57:32Z</time>
      </trkpt>
      <trkpt lat="46.5613" lon="5.76093">
        <ele>611.54</ele>
        <time>2013-07-26T12:57:34Z</time>
      </trkpt>
      <trkpt lat="46.5612" lon="5.76095">
        <ele>612.5</ele>
        <time>2013-07-26T12:57:43Z</time>
      </trkpt>
      <trkpt lat="46.56107" lon="5.76103">
        <ele>611.06</ele>
        <time>2013-07-26T12:57:53Z</time>
      </trkpt>
      <trkpt lat="46.56103" lon="5.76108">
        <ele>608.17</ele>
        <time>2013-07-26T12:57:59Z</time>
      </trkpt>
      <trkpt lat="46.56099" lon="5.76107">
        <ele>606.25</ele>
        <time>2013-07-26T12:58:11Z</time>
      </trkpt>
      <trkpt lat="46.56082" lon="5.761">
        <ele>604.81</ele>
        <time>2013-07-26T12:58:19Z</time>
      </trkpt>
      <trkpt lat="46.56075" lon="5.76117">
        <ele>606.25</ele>
        <time>2013-07-26T12:58:25Z</time>
      </trkpt>
      <trkpt lat="46.5605" lon="5.76161">
        <ele>607.69</ele>
        <time>2013-07-26T12:58:39Z</time>
      </trkpt>
      <trkpt lat="46.56031" lon="5.76205">
        <ele>610.09</ele>
        <time>2013-07-26T12:58:54Z</time>
      </trkpt>
      <trkpt lat="46.56016" lon="5.76239">
        <ele>612.02</ele>
        <time>2013-07-26T12:59:07Z</time>
      </trkpt>
      <trkpt lat="46.55995" lon="5.76256">
        <ele>612.5</ele>
        <time>2013-07-26T12:59:18Z</time>
      </trkpt>
      <trkpt lat="46.55981" lon="5.76268">
        <ele>613.94</ele>
        <time>2013-07-26T12:59:28Z</time>
      </trkpt>
      <trkpt lat="46.55953" lon="5.76282">
        <ele>616.34</ele>
        <time>2013-07-26T12:59:40Z</time>
      </trkpt>
      <trkpt lat="46.55899" lon="5.763">
        <ele>619.23</ele>
        <time>2013-07-26T12:59:54Z</time>
      </trkpt>
      <trkpt lat="46.55862" lon="5.76329">
        <ele>621.15</ele>
        <time>2013-07-26T13:00:08Z</time>
      </trkpt>
      <trkpt lat="46.55836" lon="5.7637">
        <ele>623.07</ele>
        <time>2013-07-26T13:00:22Z</time>
      </trkpt>
      <trkpt lat="46.55811" lon="5.76411">
        <ele>625.47</ele>
        <time>2013-07-26T13:00:36Z</time>
      </trkpt>
      <trkpt lat="46.55789" lon="5.7645">
        <ele>627.4</ele>
        <time>2013-07-26T13:00:50Z</time>
      </trkpt>
      <trkpt lat="46.55775" lon="5.76481">
        <ele>628.36</ele>
        <time>2013-07-26T13:01:00Z</time>
      </trkpt>
      <trkpt lat="46.55762" lon="5.76519">
        <ele>630.28</ele>
        <time>2013-07-26T13:01:11Z</time>
      </trkpt>
      <trkpt lat="46.55762" lon="5.76563">
        <ele>631.72</ele>
        <time>2013-07-26T13:01:23Z</time>
      </trkpt>
      <trkpt lat="46.55773" lon="5.76602">
        <ele>633.65</ele>
        <time>2013-07-26T13:01:35Z</time>
      </trkpt>
      <trkpt lat="46.55766" lon="5.76618">
        <ele>635.09</ele>
        <time>2013-07-26T13:01:45Z</time>
      </trkpt>
      <trkpt lat="46.55771" lon="5.76613">
        <ele>635.57</ele>
        <time>2013-07-26T13:02:05Z</time>
      </trkpt>
      <trkpt lat="46.5577" lon="5.76614">
        <ele>636.53</ele>
        <time>2013-07-26T13:02:31Z</time>
      </trkpt>
      <trkpt lat="46.55774" lon="5.76614">
        <ele>637.01</ele>
        <time>2013-07-26T13:03:00Z</time>
      </trkpt>
      <trkpt lat="46.55772" lon="5.76615">
        <ele>637.01</ele>
        <time>2013-07-26T13:03:31Z</time>
      </trkpt>
      <trkpt lat="46.55764" lon="5.76613">
        <ele>637.49</ele>
        <time>2013-07-26T13:03:57Z</time>
      </trkpt>
      <trkpt lat="46.55753" lon="5.76614">
        <ele>637.49</ele>
        <time>2013-07-26T13:04:24Z</time>
      </trkpt>
      <trkpt lat="46.55754" lon="5.76611">
        <ele>638.45</ele>
        <time>2013-07-26T13:04:51Z</time>
      </trkpt>
      <trkpt lat="46.55759" lon="5.76618">
        <ele>638.45</ele>
        <time>2013-07-26T13:05:20Z</time>
      </trkpt>
      <trkpt lat="46.55757" lon="5.76615">
        <ele>638.93</ele>
        <time>2013-07-26T13:05:43Z</time>
      </trkpt>
      <trkpt lat="46.5575" lon="5.76607">
        <ele>637.97</ele>
        <time>2013-07-26T13:06:12Z</time>
      </trkpt>
      <trkpt lat="46.55751" lon="5.76607">
        <ele>639.41</ele>
        <time>2013-07-26T13:06:35Z</time>
      </trkpt>
      <trkpt lat="46.55755" lon="5.76607">
        <ele>639.41</ele>
        <time>2013-07-26T13:06:39Z</time>
      </trkpt>
      <trkpt lat="46.55774" lon="5.76628">
        <ele>639.89</ele>
        <time>2013-07-26T13:06:49Z</time>
      </trkpt>
      <trkpt lat="46.55791" lon="5.76648">
        <ele>639.41</ele>
        <time>2013-07-26T13:06:55Z</time>
      </trkpt>
      <trkpt lat="46.55823" lon="5.76669">
        <ele>637.01</ele>
        <time>2013-07-26T13:06:59Z</time>
      </trkpt>
      <trkpt lat="46.55839" lon="5.76679">
        <ele>635.57</ele>
        <time>2013-07-26T13:07:02Z</time>
      </trkpt>
      <trkpt lat="46.55875" lon="5.76676">
        <ele>632.2</ele>
        <time>2013-07-26T13:07:10Z</time>
      </trkpt>
      <trkpt lat="46.55883" lon="5.76669">
        <ele>631.24</ele>
        <time>2013-07-26T13:07:20Z</time>
      </trkpt>
      <trkpt lat="46.55888" lon="5.76661">
        <ele>631.72</ele>
        <time>2013-07-26T13:07:31Z</time>
      </trkpt>
      <trkpt lat="46.55888" lon="5.7666">
        <ele>631.72</ele>
        <time>2013-07-26T13:07:32Z</time>
      </trkpt>
      <trkpt lat="46.55894" lon="5.7665">
        <ele>630.76</ele>
        <time>2013-07-26T13:07:39Z</time>
      </trkpt>
      <trkpt lat="46.55899" lon="5.76644">
        <ele>632.2</ele>
        <time>2013-07-26T13:07:47Z</time>
      </trkpt>
      <trkpt lat="46.55924" lon="5.76594">
        <ele>632.2</ele>
        <time>2013-07-26T13:08:01Z</time>
      </trkpt>
      <trkpt lat="46.55924" lon="5.76549">
        <ele>631.24</ele>
        <time>2013-07-26T13:08:10Z</time>
      </trkpt>
      <trkpt lat="46.55935" lon="5.76499">
        <ele>631.24</ele>
        <time>2013-07-26T13:08:20Z</time>
      </trkpt>
      <trkpt lat="46.55949" lon="5.76459">
        <ele>631.24</ele>
        <time>2013-07-26T13:08:30Z</time>
      </trkpt>
      <trkpt lat="46.55957" lon="5.76438">
        <ele>630.76</ele>
        <time>2013-07-26T13:08:34Z</time>
      </trkpt>
      <trkpt lat="46.55958" lon="5.76432">
        <ele>630.76</ele>
        <time>2013-07-26T13:08:35Z</time>
      </trkpt>
      <trkpt lat="46.5596" lon="5.76419">
        <ele>630.76</ele>
        <time>2013-07-26T13:08:37Z</time>
      </trkpt>
      <trkpt lat="46.5598" lon="5.76361">
        <ele>632.2</ele>
        <time>2013-07-26T13:08:49Z</time>
      </trkpt>
      <trkpt lat="46.55987" lon="5.7635">
        <ele>632.2</ele>
        <time>2013-07-26T13:08:53Z</time>
      </trkpt>
      <trkpt lat="46.55998" lon="5.76348">
        <ele>631.24</ele>
        <time>2013-07-26T13:08:56Z</time>
      </trkpt>
      <trkpt lat="46.5602" lon="5.76347">
        <ele>627.88</ele>
        <time>2013-07-26T13:09:02Z</time>
      </trkpt>
      <trkpt lat="46.56022" lon="5.76346">
        <ele>627.88</ele>
        <time>2013-07-26T13:09:03Z</time>
      </trkpt>
      <trkpt lat="46.56023" lon="5.76346">
        <ele>627.4</ele>
        <time>2013-07-26T13:09:04Z</time>
      </trkpt>
      <trkpt lat="46.56038" lon="5.76325">
        <ele>624.99</ele>
        <time>2013-07-26T13:09:09Z</time>
      </trkpt>
      <trkpt lat="46.56046" lon="5.76312">
        <ele>623.07</ele>
        <time>2013-07-26T13:09:11Z</time>
      </trkpt>
      <trkpt lat="46.56055" lon="5.76289">
        <ele>620.67</ele>
        <time>2013-07-26T13:09:15Z</time>
      </trkpt>
      <trkpt lat="46.56058" lon="5.76282">
        <ele>619.71</ele>
        <time>2013-07-26T13:09:17Z</time>
      </trkpt>
      <trkpt lat="46.56079" lon="5.763">
        <ele>623.07</ele>
        <time>2013-07-26T13:09:28Z</time>
      </trkpt>
      <trkpt lat="46.56102" lon="5.7633">
        <ele>625.96</ele>
        <time>2013-07-26T13:09:41Z</time>
      </trkpt>
      <trkpt lat="46.5611" lon="5.76355">
        <ele>629.32</ele>
        <time>2013-07-26T13:09:52Z</time>
      </trkpt>
      <trkpt lat="46.56107" lon="5.76404">
        <ele>631.72</ele>
        <time>2013-07-26T13:10:07Z</time>
      </trkpt>
      <trkpt lat="46.56093" lon="5.76452">
        <ele>634.61</ele>
        <time>2013-07-26T13:10:23Z</time>
      </trkpt>
      <trkpt lat="46.56086" lon="5.76502">
        <ele>637.49</ele>
        <time>2013-07-26T13:10:40Z</time>
      </trkpt>
      <trkpt lat="46.56093" lon="5.76549">
        <ele>640.38</ele>
        <time>2013-07-26T13:10:55Z</time>
      </trkpt>
      <trkpt lat="46.56108" lon="5.7659">
        <ele>642.3</ele>
        <time>2013-07-26T13:11:09Z</time>
      </trkpt>
      <trkpt lat="46.5612" lon="5.76627">
        <ele>645.18</ele>
        <time>2013-07-26T13:11:22Z</time>
      </trkpt>
      <trkpt lat="46.56136" lon="5.76677">
        <ele>647.1</ele>
        <time>2013-07-26T13:11:38Z</time>
      </trkpt>
      <trkpt lat="46.56156" lon="5.76729">
        <ele>647.59</ele>
        <time>2013-07-26T13:11:52Z</time>
      </trkpt>
      <trkpt lat="46.5618" lon="5.768">
        <ele>648.55</ele>
        <time>2013-07-26T13:12:09Z</time>
      </trkpt>
      <trkpt lat="46.56203" lon="5.76865">
        <ele>649.51</ele>
        <time>2013-07-26T13:12:23Z</time>
      </trkpt>
      <trkpt lat="46.56223" lon="5.76938">
        <ele>650.95</ele>
        <time>2013-07-26T13:12:38Z</time>
      </trkpt>
      <trkpt lat="46.5624" lon="5.76998">
        <ele>652.39</ele>
        <time>2013-07-26T13:12:53Z</time>
      </trkpt>
      <trkpt lat="46.56228" lon="5.77032">
        <ele>655.76</ele>
        <time>2013-07-26T13:13:05Z</time>
      </trkpt>
      <trkpt lat="46.56214" lon="5.77059">
        <ele>659.12</ele>
        <time>2013-07-26T13:13:14Z</time>
      </trkpt>
      <trkpt lat="46.56202" lon="5.77112">
        <ele>662.01</ele>
        <time>2013-07-26T13:13:30Z</time>
      </trkpt>
      <trkpt lat="46.56193" lon="5.7714">
        <ele>662.97</ele>
        <time>2013-07-26T13:13:38Z</time>
      </trkpt>
      <trkpt lat="46.56188" lon="5.77194">
        <ele>666.33</ele>
        <time>2013-07-26T13:13:54Z</time>
      </trkpt>
      <trkpt lat="46.56174" lon="5.77261">
        <ele>668.25</ele>
        <time>2013-07-26T13:14:13Z</time>
      </trkpt>
      <trkpt lat="46.56152" lon="5.77319">
        <ele>670.18</ele>
        <time>2013-07-26T13:14:31Z</time>
      </trkpt>
      <trkpt lat="46.56128" lon="5.77371">
        <ele>671.62</ele>
        <time>2013-07-26T13:14:46Z</time>
      </trkpt>
      <trkpt lat="46.56105" lon="5.77424">
        <ele>673.06</ele>
        <time>2013-07-26T13:15:04Z</time>
      </trkpt>
      <trkpt lat="46.56117" lon="5.77434">
        <ele>674.02</ele>
        <time>2013-07-26T13:15:16Z</time>
      </trkpt>
      <trkpt lat="46.56118" lon="5.77438">
        <ele>674.5</ele>
        <time>2013-07-26T13:15:39Z</time>
      </trkpt>
      <trkpt lat="46.56113" lon="5.77436">
        <ele>673.54</ele>
        <time>2013-07-26T13:16:05Z</time>
      </trkpt>
      <trkpt lat="46.56113" lon="5.77432">
        <ele>674.02</ele>
        <time>2013-07-26T13:16:37Z</time>
      </trkpt>
      <trkpt lat="46.56111" lon="5.77429">
        <ele>674.02</ele>
        <time>2013-07-26T13:16:54Z</time>
      </trkpt>
      <trkpt lat="46.56101" lon="5.77428">
        <ele>674.5</ele>
        <time>2013-07-26T13:17:20Z</time>
      </trkpt>
      <trkpt lat="46.56115" lon="5.77431">
        <ele>674.02</ele>
        <time>2013-07-26T13:17:54Z</time>
      </trkpt>
      <trkpt lat="46.56119" lon="5.77436">
        <ele>674.98</ele>
        <time>2013-07-26T13:17:57Z</time>
      </trkpt>
      <trkpt lat="46.56117" lon="5.77473">
        <ele>677.87</ele>
        <time>2013-07-26T13:18:10Z</time>
      </trkpt>
      <trkpt lat="46.56115" lon="5.77489">
        <ele>680.27</ele>
        <time>2013-07-26T13:18:16Z</time>
      </trkpt>
      <trkpt lat="46.56108" lon="5.77519">
        <ele>682.19</ele>
        <time>2013-07-26T13:18:29Z</time>
      </trkpt>
      <trkpt lat="46.5611" lon="5.7755">
        <ele>685.56</ele>
        <time>2013-07-26T13:18:43Z</time>
      </trkpt>
      <trkpt lat="46.56118" lon="5.77568">
        <ele>688.44</ele>
        <time>2013-07-26T13:18:56Z</time>
      </trkpt>
      <trkpt lat="46.56121" lon="5.77571">
        <ele>688.92</ele>
        <time>2013-07-26T13:18:59Z</time>
      </trkpt>
      <trkpt lat="46.56135" lon="5.77595">
        <ele>691.33</ele>
        <time>2013-07-26T13:19:13Z</time>
      </trkpt>
      <trkpt lat="46.56136" lon="5.77615">
        <ele>692.29</ele>
        <time>2013-07-26T13:19:22Z</time>
      </trkpt>
      <trkpt lat="46.56137" lon="5.77624">
        <ele>692.77</ele>
        <time>2013-07-26T13:19:26Z</time>
      </trkpt>
      <trkpt lat="46.5614" lon="5.77665">
        <ele>695.17</ele>
        <time>2013-07-26T13:19:41Z</time>
      </trkpt>
      <trkpt lat="46.56145" lon="5.77694">
        <ele>696.61</ele>
        <time>2013-07-26T13:19:53Z</time>
      </trkpt>
      <trkpt lat="46.56153" lon="5.77713">
        <ele>697.57</ele>
        <time>2013-07-26T13:20:03Z</time>
      </trkpt>
      <trkpt lat="46.5616" lon="5.77747">
        <ele>698.53</ele>
        <time>2013-07-26T13:20:12Z</time>
      </trkpt>
      <trkpt lat="46.56174" lon="5.77784">
        <ele>700.94</ele>
        <time>2013-07-26T13:20:25Z</time>
      </trkpt>
      <trkpt lat="46.56179" lon="5.778">
        <ele>702.38</ele>
        <time>2013-07-26T13:20:33Z</time>
      </trkpt>
      <trkpt lat="46.56186" lon="5.77828">
        <ele>705.26</ele>
        <time>2013-07-26T13:20:44Z</time>
      </trkpt>
      <trkpt lat="46.56198" lon="5.77859">
        <ele>708.15</ele>
        <time>2013-07-26T13:20:57Z</time>
      </trkpt>
      <trkpt lat="46.562" lon="5.77893">
        <ele>709.59</ele>
        <time>2013-07-26T13:21:11Z</time>
      </trkpt>
      <trkpt lat="46.56196" lon="5.77913">
        <ele>710.07</ele>
        <time>2013-07-26T13:21:21Z</time>
      </trkpt>
      <trkpt lat="46.56194" lon="5.77932">
        <ele>711.99</ele>
        <time>2013-07-26T13:21:31Z</time>
      </trkpt>
      <trkpt lat="46.56191" lon="5.77968">
        <ele>715.36</ele>
        <time>2013-07-26T13:21:46Z</time>
      </trkpt>
      <trkpt lat="46.5619" lon="5.77976">
        <ele>715.84</ele>
        <time>2013-07-26T13:21:49Z</time>
      </trkpt>
      <trkpt lat="46.56192" lon="5.78002">
        <ele>718.24</ele>
        <time>2013-07-26T13:21:59Z</time>
      </trkpt>
      <trkpt lat="46.56194" lon="5.78023">
        <ele>720.65</ele>
        <time>2013-07-26T13:22:11Z</time>
      </trkpt>
      <trkpt lat="46.56208" lon="5.78039">
        <ele>722.09</ele>
        <time>2013-07-26T13:22:21Z</time>
      </trkpt>
      <trkpt lat="46.56216" lon="5.78052">
        <ele>722.57</ele>
        <time>2013-07-26T13:22:29Z</time>
      </trkpt>
      <trkpt lat="46.56217" lon="5.78053">
        <ele>723.05</ele>
        <time>2013-07-26T13:22:30Z</time>
      </trkpt>
      <trkpt lat="46.56227" lon="5.78078">
        <ele>724.01</ele>
        <time>2013-07-26T13:22:42Z</time>
      </trkpt>
      <trkpt lat="46.5623" lon="5.78085">
        <ele>724.97</ele>
        <time>2013-07-26T13:22:46Z</time>
      </trkpt>
      <trkpt lat="46.56236" lon="5.78096">
        <ele>726.41</ele>
        <time>2013-07-26T13:22:53Z</time>
      </trkpt>
      <trkpt lat="46.56238" lon="5.78098">
        <ele>726.89</ele>
        <time>2013-07-26T13:22:54Z</time>
      </trkpt>
      <trkpt lat="46.56254" lon="5.78125">
        <ele>728.82</ele>
        <time>2013-07-26T13:23:06Z</time>
      </trkpt>
      <trkpt lat="46.56265" lon="5.78152">
        <ele>730.26</ele>
        <time>2013-07-26T13:23:16Z</time>
      </trkpt>
      <trkpt lat="46.56271" lon="5.78159">
        <ele>730.74</ele>
        <time>2013-07-26T13:23:19Z</time>
      </trkpt>
      <trkpt lat="46.56291" lon="5.78178">
        <ele>733.14</ele>
        <time>2013-07-26T13:23:33Z</time>
      </trkpt>
      <trkpt lat="46.56295" lon="5.78189">
        <ele>734.58</ele>
        <time>2013-07-26T13:23:46Z</time>
      </trkpt>
      <trkpt lat="46.56303" lon="5.78207">
        <ele>736.51</ele>
        <time>2013-07-26T13:23:59Z</time>
      </trkpt>
      <trkpt lat="46.56303" lon="5.78214">
        <ele>736.99</ele>
        <time>2013-07-26T13:24:03Z</time>
      </trkpt>
      <trkpt lat="46.56305" lon="5.78226">
        <ele>739.39</ele>
        <time>2013-07-26T13:24:10Z</time>
      </trkpt>
      <trkpt lat="46.56314" lon="5.78238">
        <ele>740.35</ele>
        <time>2013-07-26T13:24:23Z</time>
      </trkpt>
      <trkpt lat="46.56314" lon="5.78241">
        <ele>740.83</ele>
        <time>2013-07-26T13:24:25Z</time>
      </trkpt>
      <trkpt lat="46.56328" lon="5.78258">
        <ele>745.16</ele>
        <time>2013-07-26T13:24:38Z</time>
      </trkpt>
      <trkpt lat="46.56329" lon="5.78277">
        <ele>747.08</ele>
        <time>2013-07-26T13:24:52Z</time>
      </trkpt>
      <trkpt lat="46.56328" lon="5.78283">
        <ele>747.56</ele>
        <time>2013-07-26T13:25:05Z</time>
      </trkpt>
      <trkpt lat="46.56326" lon="5.78291">
        <ele>748.04</ele>
        <time>2013-07-26T13:25:11Z</time>
      </trkpt>
      <trkpt lat="46.56322" lon="5.78302">
        <ele>750.93</ele>
        <time>2013-07-26T13:25:21Z</time>
      </trkpt>
      <trkpt lat="46.56319" lon="5.78313">
        <ele>751.89</ele>
        <time>2013-07-26T13:25:36Z</time>
      </trkpt>
      <trkpt lat="46.56319" lon="5.78322">
        <ele>753.81</ele>
        <time>2013-07-26T13:25:55Z</time>
      </trkpt>
      <trkpt lat="46.56313" lon="5.78332">
        <ele>755.25</ele>
        <time>2013-07-26T13:26:03Z</time>
      </trkpt>
      <trkpt lat="46.56309" lon="5.78346">
        <ele>757.18</ele>
        <time>2013-07-26T13:26:11Z</time>
      </trkpt>
      <trkpt lat="46.56308" lon="5.78359">
        <ele>758.62</ele>
        <time>2013-07-26T13:26:20Z</time>
      </trkpt>
      <trkpt lat="46.56302" lon="5.78386">
        <ele>761.02</ele>
        <time>2013-07-26T13:26:34Z</time>
      </trkpt>
      <trkpt lat="46.56294" lon="5.784">
        <ele>762.46</ele>
        <time>2013-07-26T13:26:43Z</time>
      </trkpt>
      <trkpt lat="46.56289" lon="5.78406">
        <ele>763.42</ele>
        <time>2013-07-26T13:26:49Z</time>
      </trkpt>
      <trkpt lat="46.56284" lon="5.78424">
        <ele>765.35</ele>
        <time>2013-07-26T13:27:03Z</time>
      </trkpt>
      <trkpt lat="46.56284" lon="5.78426">
        <ele>764.87</ele>
        <time>2013-07-26T13:27:05Z</time>
      </trkpt>
      <trkpt lat="46.56267" lon="5.78448">
        <ele>767.75</ele>
        <time>2013-07-26T13:27:18Z</time>
      </trkpt>
      <trkpt lat="46.56269" lon="5.78446">
        <ele>767.27</ele>
        <time>2013-07-26T13:27:40Z</time>
      </trkpt>
      <trkpt lat="46.56267" lon="5.78453">
        <ele>767.75</ele>
        <time>2013-07-26T13:28:15Z</time>
      </trkpt>
      <trkpt lat="46.56258" lon="5.78456">
        <ele>767.75</ele>
        <time>2013-07-26T13:28:42Z</time>
      </trkpt>
      <trkpt lat="46.56258" lon="5.78458">
        <ele>767.27</ele>
        <time>2013-07-26T13:29:17Z</time>
      </trkpt>
      <trkpt lat="46.56257" lon="5.78456">
        <ele>768.23</ele>
        <time>2013-07-26T13:29:52Z</time>
      </trkpt>
      <trkpt lat="46.56253" lon="5.78469">
        <ele>768.23</ele>
        <time>2013-07-26T13:30:27Z</time>
      </trkpt>
      <trkpt lat="46.56254" lon="5.78473">
        <ele>768.71</ele>
        <time>2013-07-26T13:30:34Z</time>
      </trkpt>
      <trkpt lat="46.56251" lon="5.78473">
        <ele>769.67</ele>
        <time>2013-07-26T13:30:38Z</time>
      </trkpt>
      <trkpt lat="46.56239" lon="5.78478">
        <ele>772.08</ele>
        <time>2013-07-26T13:30:50Z</time>
      </trkpt>
      <trkpt lat="46.56235" lon="5.78484">
        <ele>773.04</ele>
        <time>2013-07-26T13:30:55Z</time>
      </trkpt>
      <trkpt lat="46.56234" lon="5.78489">
        <ele>773.52</ele>
        <time>2013-07-26T13:30:58Z</time>
      </trkpt>
      <trkpt lat="46.56229" lon="5.78525">
        <ele>775.92</ele>
        <time>2013-07-26T13:31:12Z</time>
      </trkpt>
      <trkpt lat="46.56228" lon="5.78532">
        <ele>776.4</ele>
        <time>2013-07-26T13:31:15Z</time>
      </trkpt>
      <trkpt lat="46.56227" lon="5.78542">
        <ele>776.4</ele>
        <time>2013-07-26T13:31:19Z</time>
      </trkpt>
      <trkpt lat="46.56231" lon="5.78572">
        <ele>777.36</ele>
        <time>2013-07-26T13:31:29Z</time>
      </trkpt>
      <trkpt lat="46.56233" lon="5.78577">
        <ele>777.84</ele>
        <time>2013-07-26T13:31:31Z</time>
      </trkpt>
      <trkpt lat="46.56235" lon="5.78586">
        <ele>776.88</ele>
        <time>2013-07-26T13:31:35Z</time>
      </trkpt>
      <trkpt lat="46.56245" lon="5.78591">
        <ele>775.44</ele>
        <time>2013-07-26T13:31:39Z</time>
      </trkpt>
      <trkpt lat="46.56255" lon="5.78593">
        <ele>772.56</ele>
        <time>2013-07-26T13:31:42Z</time>
      </trkpt>
      <trkpt lat="46.56265" lon="5.78595">
        <ele>770.15</ele>
        <time>2013-07-26T13:31:45Z</time>
      </trkpt>
      <trkpt lat="46.56282" lon="5.78602">
        <ele>768.71</ele>
        <time>2013-07-26T13:31:52Z</time>
      </trkpt>
      <trkpt lat="46.56301" lon="5.78618">
        <ele>768.71</ele>
        <time>2013-07-26T13:32:03Z</time>
      </trkpt>
      <trkpt lat="46.56308" lon="5.78631">
        <ele>768.23</ele>
        <time>2013-07-26T13:32:12Z</time>
      </trkpt>
      <trkpt lat="46.56302" lon="5.78658">
        <ele>766.31</ele>
        <time>2013-07-26T13:32:21Z</time>
      </trkpt>
      <trkpt lat="46.563" lon="5.78665">
        <ele>765.83</ele>
        <time>2013-07-26T13:32:23Z</time>
      </trkpt>
      <trkpt lat="46.56288" lon="5.78691">
        <ele>762.46</ele>
        <time>2013-07-26T13:32:31Z</time>
      </trkpt>
      <trkpt lat="46.56286" lon="5.78694">
        <ele>762.46</ele>
        <time>2013-07-26T13:32:32Z</time>
      </trkpt>
      <trkpt lat="46.56275" lon="5.78698">
        <ele>760.06</ele>
        <time>2013-07-26T13:32:36Z</time>
      </trkpt>
      <trkpt lat="46.56253" lon="5.78721">
        <ele>756.69</ele>
        <time>2013-07-26T13:32:41Z</time>
      </trkpt>
      <trkpt lat="46.5625" lon="5.78726">
        <ele>756.69</ele>
        <time>2013-07-26T13:32:42Z</time>
      </trkpt>
      <trkpt lat="46.56247" lon="5.7874">
        <ele>755.73</ele>
        <time>2013-07-26T13:32:46Z</time>
      </trkpt>
      <trkpt lat="46.56244" lon="5.78743">
        <ele>755.73</ele>
        <time>2013-07-26T13:32:50Z</time>
      </trkpt>
      <trkpt lat="46.56247" lon="5.78746">
        <ele>755.73</ele>
        <time>2013-07-26T13:32:55Z</time>
      </trkpt>
      <trkpt lat="46.56253" lon="5.78764">
        <ele>755.25</ele>
        <time>2013-07-26T13:33:02Z</time>
      </trkpt>
      <trkpt lat="46.56261" lon="5.78775">
        <ele>754.29</ele>
        <time>2013-07-26T13:33:05Z</time>
      </trkpt>
      <trkpt lat="46.56272" lon="5.78787">
        <ele>751.41</ele>
        <time>2013-07-26T13:33:09Z</time>
      </trkpt>
      <trkpt lat="46.56274" lon="5.7879">
        <ele>750.93</ele>
        <time>2013-07-26T13:33:10Z</time>
      </trkpt>
      <trkpt lat="46.56275" lon="5.78794">
        <ele>750.45</ele>
        <time>2013-07-26T13:33:11Z</time>
      </trkpt>
      <trkpt lat="46.56282" lon="5.788">
        <ele>749.97</ele>
        <time>2013-07-26T13:33:17Z</time>
      </trkpt>
      <trkpt lat="46.56283" lon="5.78802">
        <ele>749.97</ele>
        <time>2013-07-26T13:33:18Z</time>
      </trkpt>
      <trkpt lat="46.56284" lon="5.78804">
        <ele>749.49</ele>
        <time>2013-07-26T13:33:19Z</time>
      </trkpt>
      <trkpt lat="46.56281" lon="5.78814">
        <ele>749.97</ele>
        <time>2013-07-26T13:33:30Z</time>
      </trkpt>
      <trkpt lat="46.56283" lon="5.78827">
        <ele>750.93</ele>
        <time>2013-07-26T13:33:42Z</time>
      </trkpt>
      <trkpt lat="46.56285" lon="5.78834">
        <ele>751.41</ele>
        <time>2013-07-26T13:33:49Z</time>
      </trkpt>
      <trkpt lat="46.56288" lon="5.78844">
        <ele>750.93</ele>
        <time>2013-07-26T13:33:55Z</time>
      </trkpt>
      <trkpt lat="46.56288" lon="5.78846">
        <ele>750.93</ele>
        <time>2013-07-26T13:33:56Z</time>
      </trkpt>
      <trkpt lat="46.56288" lon="5.7885">
        <ele>750.45</ele>
        <time>2013-07-26T13:33:57Z</time>
      </trkpt>
      <trkpt lat="46.56298" lon="5.78874">
        <ele>749.97</ele>
        <time>2013-07-26T13:34:07Z</time>
      </trkpt>
      <trkpt lat="46.56297" lon="5.78877">
        <ele>750.45</ele>
        <time>2013-07-26T13:34:16Z</time>
      </trkpt>
      <trkpt lat="46.5629" lon="5.78892">
        <ele>750.45</ele>
        <time>2013-07-26T13:34:27Z</time>
      </trkpt>
      <trkpt lat="46.56292" lon="5.78898">
        <ele>750.45</ele>
        <time>2013-07-26T13:34:31Z</time>
      </trkpt>
      <trkpt lat="46.56292" lon="5.78907">
        <ele>750.45</ele>
        <time>2013-07-26T13:34:42Z</time>
      </trkpt>
      <trkpt lat="46.56293" lon="5.78896">
        <ele>750.93</ele>
        <time>2013-07-26T13:34:52Z</time>
      </trkpt>
      <trkpt lat="46.56293" lon="5.78894">
        <ele>750.93</ele>
        <time>2013-07-26T13:34:54Z</time>
      </trkpt>
      <trkpt lat="46.56298" lon="5.78888">
        <ele>750.93</ele>
        <time>2013-07-26T13:34:58Z</time>
      </trkpt>
      <trkpt lat="46.56301" lon="5.78884">
        <ele>751.89</ele>
        <time>2013-07-26T13:35:02Z</time>
      </trkpt>
      <trkpt lat="46.56318" lon="5.78895">
        <ele>751.89</ele>
        <time>2013-07-26T13:35:16Z</time>
      </trkpt>
      <trkpt lat="46.56328" lon="5.78896">
        <ele>753.33</ele>
        <time>2013-07-26T13:35:30Z</time>
      </trkpt>
      <trkpt lat="46.56329" lon="5.78896">
        <ele>753.33</ele>
        <time>2013-07-26T13:35:31Z</time>
      </trkpt>
      <trkpt lat="46.56332" lon="5.78898">
        <ele>753.33</ele>
        <time>2013-07-26T13:35:34Z</time>
      </trkpt>
      <trkpt lat="46.56344" lon="5.78905">
        <ele>753.81</ele>
        <time>2013-07-26T13:35:44Z</time>
      </trkpt>
      <trkpt lat="46.56355" lon="5.78914">
        <ele>753.33</ele>
        <time>2013-07-26T13:35:56Z</time>
      </trkpt>
      <trkpt lat="46.56362" lon="5.78928">
        <ele>753.33</ele>
        <time>2013-07-26T13:36:09Z</time>
      </trkpt>
      <trkpt lat="46.56372" lon="5.78936">
        <ele>753.81</ele>
        <time>2013-07-26T13:36:22Z</time>
      </trkpt>
      <trkpt lat="46.56382" lon="5.78929">
        <ele>755.25</ele>
        <time>2013-07-26T13:36:33Z</time>
      </trkpt>
      <trkpt lat="46.56391" lon="5.78928">
        <ele>755.25</ele>
        <time>2013-07-26T13:36:45Z</time>
      </trkpt>
      <trkpt lat="46.56396" lon="5.78931">
        <ele>755.73</ele>
        <time>2013-07-26T13:36:56Z</time>
      </trkpt>
      <trkpt lat="46.56395" lon="5.78929">
        <ele>755.73</ele>
        <time>2013-07-26T13:36:58Z</time>
      </trkpt>
      <trkpt lat="46.56382" lon="5.78924">
        <ele>754.77</ele>
        <time>2013-07-26T13:37:11Z</time>
      </trkpt>
      <trkpt lat="46.5638" lon="5.78923">
        <ele>754.77</ele>
        <time>2013-07-26T13:37:13Z</time>
      </trkpt>
      <trkpt lat="46.56374" lon="5.78921">
        <ele>754.77</ele>
        <time>2013-07-26T13:37:17Z</time>
      </trkpt>
      <trkpt lat="46.56355" lon="5.78914">
        <ele>753.81</ele>
        <time>2013-07-26T13:37:31Z</time>
      </trkpt>
      <trkpt lat="46.56342" lon="5.78901">
        <ele>754.77</ele>
        <time>2013-07-26T13:37:44Z</time>
      </trkpt>
      <trkpt lat="46.56326" lon="5.78895">
        <ele>752.85</ele>
        <time>2013-07-26T13:37:57Z</time>
      </trkpt>
      <trkpt lat="46.56315" lon="5.78889">
        <ele>751.89</ele>
        <time>2013-07-26T13:38:09Z</time>
      </trkpt>
      <trkpt lat="46.56313" lon="5.78886">
        <ele>752.37</ele>
        <time>2013-07-26T13:38:12Z</time>
      </trkpt>
      <trkpt lat="46.56303" lon="5.78866">
        <ele>753.33</ele>
        <time>2013-07-26T13:38:25Z</time>
      </trkpt>
      <trkpt lat="46.56303" lon="5.78863">
        <ele>753.33</ele>
        <time>2013-07-26T13:38:28Z</time>
      </trkpt>
      <trkpt lat="46.56297" lon="5.78853">
        <ele>753.81</ele>
        <time>2013-07-26T13:38:33Z</time>
      </trkpt>
      <trkpt lat="46.56295" lon="5.78848">
        <ele>753.81</ele>
        <time>2013-07-26T13:38:35Z</time>
      </trkpt>
      <trkpt lat="46.56282" lon="5.78818">
        <ele>753.33</ele>
        <time>2013-07-26T13:38:48Z</time>
      </trkpt>
      <trkpt lat="46.56288" lon="5.78809">
        <ele>754.29</ele>
        <time>2013-07-26T13:39:01Z</time>
      </trkpt>
      <trkpt lat="46.56296" lon="5.78812">
        <ele>753.81</ele>
        <time>2013-07-26T13:39:07Z</time>
      </trkpt>
      <trkpt lat="46.56311" lon="5.78817">
        <ele>755.25</ele>
        <time>2013-07-26T13:39:19Z</time>
      </trkpt>
      <trkpt lat="46.56328" lon="5.78821">
        <ele>757.66</ele>
        <time>2013-07-26T13:39:32Z</time>
      </trkpt>
      <trkpt lat="46.56343" lon="5.78819">
        <ele>759.1</ele>
        <time>2013-07-26T13:39:44Z</time>
      </trkpt>
      <trkpt lat="46.56359" lon="5.7882">
        <ele>760.06</ele>
        <time>2013-07-26T13:39:57Z</time>
      </trkpt>
      <trkpt lat="46.56369" lon="5.78819">
        <ele>761.02</ele>
        <time>2013-07-26T13:40:08Z</time>
      </trkpt>
      <trkpt lat="46.56378" lon="5.78809">
        <ele>762.46</ele>
        <time>2013-07-26T13:40:21Z</time>
      </trkpt>
      <trkpt lat="46.56385" lon="5.78808">
        <ele>763.42</ele>
        <time>2013-07-26T13:40:26Z</time>
      </trkpt>
      <trkpt lat="46.56398" lon="5.7881">
        <ele>765.35</ele>
        <time>2013-07-26T13:40:39Z</time>
      </trkpt>
      <trkpt lat="46.56405" lon="5.78805">
        <ele>767.75</ele>
        <time>2013-07-26T13:40:51Z</time>
      </trkpt>
      <trkpt lat="46.56415" lon="5.78793">
        <ele>769.67</ele>
        <time>2013-07-26T13:41:05Z</time>
      </trkpt>
      <trkpt lat="46.56425" lon="5.78786">
        <ele>770.63</ele>
        <time>2013-07-26T13:41:18Z</time>
      </trkpt>
      <trkpt lat="46.56433" lon="5.78779">
        <ele>772.08</ele>
        <time>2013-07-26T13:41:30Z</time>
      </trkpt>
      <trkpt lat="46.5645" lon="5.78777">
        <ele>770.63</ele>
        <time>2013-07-26T13:41:45Z</time>
      </trkpt>
      <trkpt lat="46.56463" lon="5.78777">
        <ele>771.11</ele>
        <time>2013-07-26T13:41:57Z</time>
      </trkpt>
      <trkpt lat="46.56472" lon="5.78777">
        <ele>770.15</ele>
        <time>2013-07-26T13:42:08Z</time>
      </trkpt>
      <trkpt lat="46.56473" lon="5.78777">
        <ele>771.6</ele>
        <time>2013-07-26T13:42:10Z</time>
      </trkpt>
      <trkpt lat="46.56484" lon="5.78781">
        <ele>770.63</ele>
        <time>2013-07-26T13:42:22Z</time>
      </trkpt>
      <trkpt lat="46.56499" lon="5.78788">
        <ele>770.63</ele>
        <time>2013-07-26T13:42:34Z</time>
      </trkpt>
      <trkpt lat="46.56516" lon="5.78805">
        <ele>770.63</ele>
        <time>2013-07-26T13:42:49Z</time>
      </trkpt>
      <trkpt lat="46.56527" lon="5.78802">
        <ele>770.63</ele>
        <time>2013-07-26T13:43:00Z</time>
      </trkpt>
      <trkpt lat="46.56544" lon="5.78806">
        <ele>770.63</ele>
        <time>2013-07-26T13:43:13Z</time>
      </trkpt>
      <trkpt lat="46.56545" lon="5.78805">
        <ele>770.63</ele>
        <time>2013-07-26T13:43:14Z</time>
      </trkpt>
      <trkpt lat="46.56556" lon="5.78805">
        <ele>770.63</ele>
        <time>2013-07-26T13:43:25Z</time>
      </trkpt>
      <trkpt lat="46.56568" lon="5.78815">
        <ele>769.19</ele>
        <time>2013-07-26T13:43:35Z</time>
      </trkpt>
      <trkpt lat="46.5657" lon="5.78817">
        <ele>769.19</ele>
        <time>2013-07-26T13:43:37Z</time>
      </trkpt>
      <trkpt lat="46.56572" lon="5.78818">
        <ele>768.71</ele>
        <time>2013-07-26T13:43:39Z</time>
      </trkpt>
      <trkpt lat="46.56586" lon="5.78814">
        <ele>768.23</ele>
        <time>2013-07-26T13:43:52Z</time>
      </trkpt>
      <trkpt lat="46.56587" lon="5.78814">
        <ele>768.23</ele>
        <time>2013-07-26T13:43:55Z</time>
      </trkpt>
      <trkpt lat="46.566" lon="5.78812">
        <ele>767.75</ele>
        <time>2013-07-26T13:44:04Z</time>
      </trkpt>
      <trkpt lat="46.56605" lon="5.78811">
        <ele>767.27</ele>
        <time>2013-07-26T13:44:07Z</time>
      </trkpt>
      <trkpt lat="46.56632" lon="5.78805">
        <ele>766.31</ele>
        <time>2013-07-26T13:44:21Z</time>
      </trkpt>
      <trkpt lat="46.56658" lon="5.78798">
        <ele>763.9</ele>
        <time>2013-07-26T13:44:29Z</time>
      </trkpt>
      <trkpt lat="46.56671" lon="5.78794">
        <ele>763.42</ele>
        <time>2013-07-26T13:44:40Z</time>
      </trkpt>
      <trkpt lat="46.56688" lon="5.78793">
        <ele>763.42</ele>
        <time>2013-07-26T13:44:52Z</time>
      </trkpt>
      <trkpt lat="46.56701" lon="5.78795">
        <ele>764.39</ele>
        <time>2013-07-26T13:45:02Z</time>
      </trkpt>
      <trkpt lat="46.56722" lon="5.78822">
        <ele>761.02</ele>
        <time>2013-07-26T13:45:12Z</time>
      </trkpt>
      <trkpt lat="46.56723" lon="5.78826">
        <ele>761.02</ele>
        <time>2013-07-26T13:45:13Z</time>
      </trkpt>
      <trkpt lat="46.5674" lon="5.78873">
        <ele>759.1</ele>
        <time>2013-07-26T13:45:23Z</time>
      </trkpt>
      <trkpt lat="46.56757" lon="5.78888">
        <ele>760.54</ele>
        <time>2013-07-26T13:45:31Z</time>
      </trkpt>
      <trkpt lat="46.56763" lon="5.78892">
        <ele>759.58</ele>
        <time>2013-07-26T13:45:34Z</time>
      </trkpt>
      <trkpt lat="46.56765" lon="5.78918">
        <ele>759.1</ele>
        <time>2013-07-26T13:45:43Z</time>
      </trkpt>
      <trkpt lat="46.56763" lon="5.78923">
        <ele>759.58</ele>
        <time>2013-07-26T13:45:46Z</time>
      </trkpt>
      <trkpt lat="46.56747" lon="5.78945">
        <ele>758.14</ele>
        <time>2013-07-26T13:45:58Z</time>
      </trkpt>
      <trkpt lat="46.56746" lon="5.78944">
        <ele>758.62</ele>
        <time>2013-07-26T13:46:04Z</time>
      </trkpt>
      <trkpt lat="46.56733" lon="5.78947">
        <ele>757.18</ele>
        <time>2013-07-26T13:46:10Z</time>
      </trkpt>
      <trkpt lat="46.56721" lon="5.78946">
        <ele>756.21</ele>
        <time>2013-07-26T13:46:15Z</time>
      </trkpt>
      <trkpt lat="46.56714" lon="5.78956">
        <ele>757.18</ele>
        <time>2013-07-26T13:46:21Z</time>
      </trkpt>
      <trkpt lat="46.56695" lon="5.78989">
        <ele>756.21</ele>
        <time>2013-07-26T13:46:34Z</time>
      </trkpt>
      <trkpt lat="46.56692" lon="5.78994">
        <ele>756.21</ele>
        <time>2013-07-26T13:46:53Z</time>
      </trkpt>
      <trkpt lat="46.56691" lon="5.79002">
        <ele>757.66</ele>
        <time>2013-07-26T13:47:25Z</time>
      </trkpt>
      <trkpt lat="46.56693" lon="5.79">
        <ele>756.69</ele>
        <time>2013-07-26T13:47:55Z</time>
      </trkpt>
      <trkpt lat="46.56695" lon="5.78999">
        <ele>757.66</ele>
        <time>2013-07-26T13:48:05Z</time>
      </trkpt>
      <trkpt lat="46.56699" lon="5.78998">
        <ele>757.66</ele>
        <time>2013-07-26T13:48:29Z</time>
      </trkpt>
      <trkpt lat="46.56697" lon="5.79009">
        <ele>758.14</ele>
        <time>2013-07-26T13:49:00Z</time>
      </trkpt>
      <trkpt lat="46.56698" lon="5.79016">
        <ele>758.14</ele>
        <time>2013-07-26T13:49:28Z</time>
      </trkpt>
      <trkpt lat="46.56698" lon="5.78998">
        <ele>758.62</ele>
        <time>2013-07-26T13:49:46Z</time>
      </trkpt>
      <trkpt lat="46.56697" lon="5.78998">
        <ele>758.62</ele>
        <time>2013-07-26T13:49:49Z</time>
      </trkpt>
      <trkpt lat="46.56681" lon="5.78988">
        <ele>759.1</ele>
        <time>2013-07-26T13:49:58Z</time>
      </trkpt>
      <trkpt lat="46.56658" lon="5.78966">
        <ele>759.58</ele>
        <time>2013-07-26T13:50:10Z</time>
      </trkpt>
      <trkpt lat="46.56642" lon="5.7896">
        <ele>760.54</ele>
        <time>2013-07-26T13:50:21Z</time>
      </trkpt>
      <trkpt lat="46.56632" lon="5.78958">
        <ele>761.5</ele>
        <time>2013-07-26T13:50:32Z</time>
      </trkpt>
      <trkpt lat="46.56629" lon="5.7896">
        <ele>761.5</ele>
        <time>2013-07-26T13:50:34Z</time>
      </trkpt>
      <trkpt lat="46.5661" lon="5.78966">
        <ele>762.94</ele>
        <time>2013-07-26T13:50:46Z</time>
      </trkpt>
      <trkpt lat="46.56594" lon="5.78969">
        <ele>762.94</ele>
        <time>2013-07-26T13:50:56Z</time>
      </trkpt>
      <trkpt lat="46.56568" lon="5.78979">
        <ele>763.9</ele>
        <time>2013-07-26T13:51:07Z</time>
      </trkpt>
      <trkpt lat="46.56544" lon="5.78993">
        <ele>763.9</ele>
        <time>2013-07-26T13:51:20Z</time>
      </trkpt>
      <trkpt lat="46.56533" lon="5.79001">
        <ele>764.39</ele>
        <time>2013-07-26T13:51:33Z</time>
      </trkpt>
      <trkpt lat="46.5652" lon="5.79006">
        <ele>763.9</ele>
        <time>2013-07-26T13:51:44Z</time>
      </trkpt>
      <trkpt lat="46.56509" lon="5.79006">
        <ele>763.42</ele>
        <time>2013-07-26T13:51:58Z</time>
      </trkpt>
      <trkpt lat="46.56497" lon="5.79003">
        <ele>763.42</ele>
        <time>2013-07-26T13:52:10Z</time>
      </trkpt>
      <trkpt lat="46.56496" lon="5.79">
        <ele>763.9</ele>
        <time>2013-07-26T13:52:17Z</time>
      </trkpt>
      <trkpt lat="46.56486" lon="5.78992">
        <ele>764.87</ele>
        <time>2013-07-26T13:52:29Z</time>
      </trkpt>
      <trkpt lat="46.56476" lon="5.78984">
        <ele>764.87</ele>
        <time>2013-07-26T13:52:35Z</time>
      </trkpt>
      <trkpt lat="46.56467" lon="5.78979">
        <ele>764.87</ele>
        <time>2013-07-26T13:52:40Z</time>
      </trkpt>
      <trkpt lat="46.56466" lon="5.78977">
        <ele>764.87</ele>
        <time>2013-07-26T13:52:41Z</time>
      </trkpt>
      <trkpt lat="46.56439" lon="5.78958">
        <ele>762.46</ele>
        <time>2013-07-26T13:52:51Z</time>
      </trkpt>
      <trkpt lat="46.56428" lon="5.78949">
        <ele>761.5</ele>
        <time>2013-07-26T13:52:55Z</time>
      </trkpt>
      <trkpt lat="46.56401" lon="5.78942">
        <ele>759.1</ele>
        <time>2013-07-26T13:53:06Z</time>
      </trkpt>
      <trkpt lat="46.56406" lon="5.78944">
        <ele>759.58</ele>
        <time>2013-07-26T13:53:12Z</time>
      </trkpt>
      <trkpt lat="46.56407" lon="5.78934">
        <ele>760.06</ele>
        <time>2013-07-26T13:53:22Z</time>
      </trkpt>
      <trkpt lat="46.56403" lon="5.78928">
        <ele>760.06</ele>
        <time>2013-07-26T13:53:31Z</time>
      </trkpt>
      <trkpt lat="46.56392" lon="5.7892">
        <ele>759.1</ele>
        <time>2013-07-26T13:53:43Z</time>
      </trkpt>
      <trkpt lat="46.56388" lon="5.78923">
        <ele>758.62</ele>
        <time>2013-07-26T13:53:47Z</time>
      </trkpt>
      <trkpt lat="46.56383" lon="5.78928">
        <ele>758.14</ele>
        <time>2013-07-26T13:53:53Z</time>
      </trkpt>
      <trkpt lat="46.5638" lon="5.78927">
        <ele>757.66</ele>
        <time>2013-07-26T13:53:56Z</time>
      </trkpt>
      <trkpt lat="46.56373" lon="5.7892">
        <ele>757.66</ele>
        <time>2013-07-26T13:54:08Z</time>
      </trkpt>
      <trkpt lat="46.56368" lon="5.78914">
        <ele>758.14</ele>
        <time>2013-07-26T13:54:12Z</time>
      </trkpt>
      <trkpt lat="46.56356" lon="5.78899">
        <ele>758.14</ele>
        <time>2013-07-26T13:54:20Z</time>
      </trkpt>
      <trkpt lat="46.56351" lon="5.78894">
        <ele>758.14</ele>
        <time>2013-07-26T13:54:24Z</time>
      </trkpt>
      <trkpt lat="46.56337" lon="5.78889">
        <ele>756.69</ele>
        <time>2013-07-26T13:54:31Z</time>
      </trkpt>
      <trkpt lat="46.56334" lon="5.78888">
        <ele>756.21</ele>
        <time>2013-07-26T13:54:34Z</time>
      </trkpt>
      <trkpt lat="46.5633" lon="5.78887">
        <ele>756.69</ele>
        <time>2013-07-26T13:54:37Z</time>
      </trkpt>
      <trkpt lat="46.56316" lon="5.78872">
        <ele>757.18</ele>
        <time>2013-07-26T13:54:50Z</time>
      </trkpt>
      <trkpt lat="46.56314" lon="5.78867">
        <ele>757.18</ele>
        <time>2013-07-26T13:54:52Z</time>
      </trkpt>
      <trkpt lat="46.56297" lon="5.78836">
        <ele>757.66</ele>
        <time>2013-07-26T13:55:05Z</time>
      </trkpt>
      <trkpt lat="46.56293" lon="5.78815">
        <ele>757.18</ele>
        <time>2013-07-26T13:55:16Z</time>
      </trkpt>
      <trkpt lat="46.56296" lon="5.7881">
        <ele>757.66</ele>
        <time>2013-07-26T13:55:23Z</time>
      </trkpt>
      <trkpt lat="46.56291" lon="5.78795">
        <ele>758.62</ele>
        <time>2013-07-26T13:55:36Z</time>
      </trkpt>
      <trkpt lat="46.56285" lon="5.7879">
        <ele>759.58</ele>
        <time>2013-07-26T13:55:42Z</time>
      </trkpt>
      <trkpt lat="46.56277" lon="5.78775">
        <ele>761.5</ele>
        <time>2013-07-26T13:55:53Z</time>
      </trkpt>
      <trkpt lat="46.56261" lon="5.78752">
        <ele>763.9</ele>
        <time>2013-07-26T13:56:10Z</time>
      </trkpt>
      <trkpt lat="46.5626" lon="5.78751">
        <ele>763.9</ele>
        <time>2013-07-26T13:56:11Z</time>
      </trkpt>
      <trkpt lat="46.56238" lon="5.78734">
        <ele>762.94</ele>
        <time>2013-07-26T13:56:24Z</time>
      </trkpt>
      <trkpt lat="46.56234" lon="5.78732">
        <ele>762.46</ele>
        <time>2013-07-26T13:56:25Z</time>
      </trkpt>
      <trkpt lat="46.5623" lon="5.78732">
        <ele>762.94</ele>
        <time>2013-07-26T13:56:26Z</time>
      </trkpt>
      <trkpt lat="46.56225" lon="5.78732">
        <ele>762.46</ele>
        <time>2013-07-26T13:56:27Z</time>
      </trkpt>
      <trkpt lat="46.56219" lon="5.78731">
        <ele>761.5</ele>
        <time>2013-07-26T13:56:28Z</time>
      </trkpt>
      <trkpt lat="46.56213" lon="5.78731">
        <ele>761.5</ele>
        <time>2013-07-26T13:56:29Z</time>
      </trkpt>
      <trkpt lat="46.56182" lon="5.78741">
        <ele>758.62</ele>
        <time>2013-07-26T13:56:33Z</time>
      </trkpt>
      <trkpt lat="46.56139" lon="5.78762">
        <ele>758.62</ele>
        <time>2013-07-26T13:56:45Z</time>
      </trkpt>
      <trkpt lat="46.56102" lon="5.78783">
        <ele>755.25</ele>
        <time>2013-07-26T13:56:52Z</time>
      </trkpt>
      <trkpt lat="46.56092" lon="5.78791">
        <ele>755.25</ele>
        <time>2013-07-26T13:56:54Z</time>
      </trkpt>
      <trkpt lat="46.56057" lon="5.78838">
        <ele>754.29</ele>
        <time>2013-07-26T13:57:06Z</time>
      </trkpt>
      <trkpt lat="46.56024" lon="5.78887">
        <ele>753.33</ele>
        <time>2013-07-26T13:57:18Z</time>
      </trkpt>
      <trkpt lat="46.56002" lon="5.78906">
        <ele>751.89</ele>
        <time>2013-07-26T13:57:22Z</time>
      </trkpt>
      <trkpt lat="46.55975" lon="5.78929">
        <ele>748.52</ele>
        <time>2013-07-26T13:57:27Z</time>
      </trkpt>
      <trkpt lat="46.5597" lon="5.78934">
        <ele>748.04</ele>
        <time>2013-07-26T13:57:28Z</time>
      </trkpt>
      <trkpt lat="46.55961" lon="5.78941">
        <ele>747.08</ele>
        <time>2013-07-26T13:57:30Z</time>
      </trkpt>
      <trkpt lat="46.55938" lon="5.78964">
        <ele>746.12</ele>
        <time>2013-07-26T13:57:36Z</time>
      </trkpt>
      <trkpt lat="46.55898" lon="5.78993">
        <ele>746.6</ele>
        <time>2013-07-26T13:57:46Z</time>
      </trkpt>
      <trkpt lat="46.55878" lon="5.79005">
        <ele>745.64</ele>
        <time>2013-07-26T13:57:56Z</time>
      </trkpt>
      <trkpt lat="46.55878" lon="5.79007">
        <ele>745.16</ele>
        <time>2013-07-26T13:58:08Z</time>
      </trkpt>
      <trkpt lat="46.55877" lon="5.79011">
        <ele>745.16</ele>
        <time>2013-07-26T13:58:26Z</time>
      </trkpt>
      <trkpt lat="46.55875" lon="5.79014">
        <ele>745.64</ele>
        <time>2013-07-26T13:59:04Z</time>
      </trkpt>
      <trkpt lat="46.55877" lon="5.79005">
        <ele>746.12</ele>
        <time>2013-07-26T13:59:39Z</time>
      </trkpt>
      <trkpt lat="46.5588" lon="5.79007">
        <ele>746.12</ele>
        <time>2013-07-26T14:00:15Z</time>
      </trkpt>
      <trkpt lat="46.55882" lon="5.79008">
        <ele>746.6</ele>
        <time>2013-07-26T14:00:33Z</time>
      </trkpt>
      <trkpt lat="46.55886" lon="5.79035">
        <ele>746.6</ele>
        <time>2013-07-26T14:00:40Z</time>
      </trkpt>
      <trkpt lat="46.55897" lon="5.79099">
        <ele>747.56</ele>
        <time>2013-07-26T14:00:53Z</time>
      </trkpt>
      <trkpt lat="46.55917" lon="5.79148">
        <ele>746.6</ele>
        <time>2013-07-26T14:01:05Z</time>
      </trkpt>
      <trkpt lat="46.55926" lon="5.79157">
        <ele>746.12</ele>
        <time>2013-07-26T14:01:07Z</time>
      </trkpt>
      <trkpt lat="46.55929" lon="5.79162">
        <ele>745.16</ele>
        <time>2013-07-26T14:01:08Z</time>
      </trkpt>
      <trkpt lat="46.55941" lon="5.79185">
        <ele>745.16</ele>
        <time>2013-07-26T14:01:12Z</time>
      </trkpt>
      <trkpt lat="46.55955" lon="5.79211">
        <ele>745.16</ele>
        <time>2013-07-26T14:01:16Z</time>
      </trkpt>
      <trkpt lat="46.55965" lon="5.79229">
        <ele>745.16</ele>
        <time>2013-07-26T14:01:19Z</time>
      </trkpt>
      <trkpt lat="46.56005" lon="5.79271">
        <ele>743.72</ele>
        <time>2013-07-26T14:01:30Z</time>
      </trkpt>
      <trkpt lat="46.56029" lon="5.79281">
        <ele>743.24</ele>
        <time>2013-07-26T14:01:34Z</time>
      </trkpt>
      <trkpt lat="46.5607" lon="5.79294">
        <ele>742.76</ele>
        <time>2013-07-26T14:01:42Z</time>
      </trkpt>
      <trkpt lat="46.56075" lon="5.79295">
        <ele>742.76</ele>
        <time>2013-07-26T14:01:43Z</time>
      </trkpt>
      <trkpt lat="46.56108" lon="5.79311">
        <ele>742.76</ele>
        <time>2013-07-26T14:01:50Z</time>
      </trkpt>
      <trkpt lat="46.56143" lon="5.79338">
        <ele>741.31</ele>
        <time>2013-07-26T14:01:59Z</time>
      </trkpt>
      <trkpt lat="46.56149" lon="5.79344">
        <ele>740.35</ele>
        <time>2013-07-26T14:02:03Z</time>
      </trkpt>
      <trkpt lat="46.56149" lon="5.79384">
        <ele>738.91</ele>
        <time>2013-07-26T14:02:14Z</time>
      </trkpt>
      <trkpt lat="46.56141" lon="5.7941">
        <ele>737.47</ele>
        <time>2013-07-26T14:02:24Z</time>
      </trkpt>
      <trkpt lat="46.56125" lon="5.79436">
        <ele>736.03</ele>
        <time>2013-07-26T14:02:36Z</time>
      </trkpt>
      <trkpt lat="46.56114" lon="5.7946">
        <ele>734.1</ele>
        <time>2013-07-26T14:02:43Z</time>
      </trkpt>
      <trkpt lat="46.56105" lon="5.79497">
        <ele>732.66</ele>
        <time>2013-07-26T14:02:54Z</time>
      </trkpt>
      <trkpt lat="46.561" lon="5.79505">
        <ele>733.14</ele>
        <time>2013-07-26T14:03:05Z</time>
      </trkpt>
      <trkpt lat="46.56094" lon="5.79521">
        <ele>733.14</ele>
        <time>2013-07-26T14:03:20Z</time>
      </trkpt>
      <trkpt lat="46.56092" lon="5.79527">
        <ele>733.14</ele>
        <time>2013-07-26T14:03:23Z</time>
      </trkpt>
      <trkpt lat="46.5609" lon="5.7953">
        <ele>733.14</ele>
        <time>2013-07-26T14:03:25Z</time>
      </trkpt>
      <trkpt lat="46.56087" lon="5.79539">
        <ele>733.14</ele>
        <time>2013-07-26T14:03:29Z</time>
      </trkpt>
      <trkpt lat="46.56078" lon="5.79557">
        <ele>733.62</ele>
        <time>2013-07-26T14:03:36Z</time>
      </trkpt>
      <trkpt lat="46.56071" lon="5.79573">
        <ele>733.62</ele>
        <time>2013-07-26T14:03:42Z</time>
      </trkpt>
      <trkpt lat="46.56064" lon="5.79584">
        <ele>734.1</ele>
        <time>2013-07-26T14:03:52Z</time>
      </trkpt>
      <trkpt lat="46.56063" lon="5.79589">
        <ele>734.58</ele>
        <time>2013-07-26T14:03:55Z</time>
      </trkpt>
      <trkpt lat="46.56056" lon="5.79609">
        <ele>734.1</ele>
        <time>2013-07-26T14:04:07Z</time>
      </trkpt>
      <trkpt lat="46.56053" lon="5.79615">
        <ele>735.55</ele>
        <time>2013-07-26T14:04:12Z</time>
      </trkpt>
      <trkpt lat="46.56051" lon="5.79623">
        <ele>734.58</ele>
        <time>2013-07-26T14:04:24Z</time>
      </trkpt>
      <trkpt lat="46.56045" lon="5.79635">
        <ele>735.07</ele>
        <time>2013-07-26T14:04:34Z</time>
      </trkpt>
      <trkpt lat="46.5604" lon="5.79642">
        <ele>734.58</ele>
        <time>2013-07-26T14:04:42Z</time>
      </trkpt>
      <trkpt lat="46.56035" lon="5.7965">
        <ele>734.58</ele>
        <time>2013-07-26T14:04:53Z</time>
      </trkpt>
      <trkpt lat="46.56026" lon="5.79671">
        <ele>736.03</ele>
        <time>2013-07-26T14:05:06Z</time>
      </trkpt>
      <trkpt lat="46.56024" lon="5.79674">
        <ele>736.51</ele>
        <time>2013-07-26T14:05:12Z</time>
      </trkpt>
      <trkpt lat="46.56013" lon="5.79685">
        <ele>737.47</ele>
        <time>2013-07-26T14:05:24Z</time>
      </trkpt>
      <trkpt lat="46.56011" lon="5.79688">
        <ele>736.99</ele>
        <time>2013-07-26T14:05:25Z</time>
      </trkpt>
      <trkpt lat="46.55995" lon="5.79718">
        <ele>737.95</ele>
        <time>2013-07-26T14:05:39Z</time>
      </trkpt>
      <trkpt lat="46.5599" lon="5.79723">
        <ele>737.95</ele>
        <time>2013-07-26T14:05:50Z</time>
      </trkpt>
      <trkpt lat="46.55979" lon="5.79738">
        <ele>736.03</ele>
        <time>2013-07-26T14:05:58Z</time>
      </trkpt>
      <trkpt lat="46.55971" lon="5.79749">
        <ele>735.07</ele>
        <time>2013-07-26T14:06:02Z</time>
      </trkpt>
      <trkpt lat="46.55962" lon="5.79763">
        <ele>733.62</ele>
        <time>2013-07-26T14:06:11Z</time>
      </trkpt>
      <trkpt lat="46.55956" lon="5.79787">
        <ele>733.62</ele>
        <time>2013-07-26T14:06:23Z</time>
      </trkpt>
      <trkpt lat="46.55951" lon="5.79798">
        <ele>732.18</ele>
        <time>2013-07-26T14:06:32Z</time>
      </trkpt>
      <trkpt lat="46.55947" lon="5.798">
        <ele>733.14</ele>
        <time>2013-07-26T14:06:36Z</time>
      </trkpt>
      <trkpt lat="46.55936" lon="5.7981">
        <ele>732.66</ele>
        <time>2013-07-26T14:06:44Z</time>
      </trkpt>
      <trkpt lat="46.55919" lon="5.79819">
        <ele>732.18</ele>
        <time>2013-07-26T14:06:58Z</time>
      </trkpt>
      <trkpt lat="46.55917" lon="5.79816">
        <ele>732.18</ele>
        <time>2013-07-26T14:07:15Z</time>
      </trkpt>
      <trkpt lat="46.55914" lon="5.79817">
        <ele>731.7</ele>
        <time>2013-07-26T14:07:33Z</time>
      </trkpt>
      <trkpt lat="46.55921" lon="5.79815">
        <ele>731.7</ele>
        <time>2013-07-26T14:08:11Z</time>
      </trkpt>
      <trkpt lat="46.55913" lon="5.79814">
        <ele>731.7</ele>
        <time>2013-07-26T14:08:46Z</time>
      </trkpt>
      <trkpt lat="46.55925" lon="5.7982">
        <ele>732.18</ele>
        <time>2013-07-26T14:09:03Z</time>
      </trkpt>
      <trkpt lat="46.55914" lon="5.79814">
        <ele>733.14</ele>
        <time>2013-07-26T14:09:07Z</time>
      </trkpt>
      <trkpt lat="46.55872" lon="5.79819">
        <ele>735.07</ele>
        <time>2013-07-26T14:09:21Z</time>
      </trkpt>
      <trkpt lat="46.55849" lon="5.79833">
        <ele>735.55</ele>
        <time>2013-07-26T14:09:31Z</time>
      </trkpt>
      <trkpt lat="46.55832" lon="5.79841">
        <ele>736.99</ele>
        <time>2013-07-26T14:09:39Z</time>
      </trkpt>
      <trkpt lat="46.55804" lon="5.79857">
        <ele>739.39</ele>
        <time>2013-07-26T14:09:52Z</time>
      </trkpt>
      <trkpt lat="46.55775" lon="5.79882">
        <ele>740.35</ele>
        <time>2013-07-26T14:10:05Z</time>
      </trkpt>
      <trkpt lat="46.55753" lon="5.79908">
        <ele>740.35</ele>
        <time>2013-07-26T14:10:16Z</time>
      </trkpt>
      <trkpt lat="46.55722" lon="5.79938">
        <ele>740.83</ele>
        <time>2013-07-26T14:10:27Z</time>
      </trkpt>
      <trkpt lat="46.55698" lon="5.79956">
        <ele>741.79</ele>
        <time>2013-07-26T14:10:37Z</time>
      </trkpt>
      <trkpt lat="46.55685" lon="5.79964">
        <ele>742.76</ele>
        <time>2013-07-26T14:10:42Z</time>
      </trkpt>
      <trkpt lat="46.55652" lon="5.79983">
        <ele>743.24</ele>
        <time>2013-07-26T14:10:55Z</time>
      </trkpt>
      <trkpt lat="46.55635" lon="5.79989">
        <ele>743.72</ele>
        <time>2013-07-26T14:11:01Z</time>
      </trkpt>
      <trkpt lat="46.55614" lon="5.7999">
        <ele>743.24</ele>
        <time>2013-07-26T14:11:07Z</time>
      </trkpt>
      <trkpt lat="46.55608" lon="5.79989">
        <ele>742.28</ele>
        <time>2013-07-26T14:11:09Z</time>
      </trkpt>
      <trkpt lat="46.55571" lon="5.7999">
        <ele>740.83</ele>
        <time>2013-07-26T14:11:15Z</time>
      </trkpt>
      <trkpt lat="46.55524" lon="5.79996">
        <ele>740.83</ele>
        <time>2013-07-26T14:11:26Z</time>
      </trkpt>
      <trkpt lat="46.55489" lon="5.79994">
        <ele>740.83</ele>
        <time>2013-07-26T14:11:34Z</time>
      </trkpt>
      <trkpt lat="46.55471" lon="5.7998">
        <ele>741.79</ele>
        <time>2013-07-26T14:11:42Z</time>
      </trkpt>
      <trkpt lat="46.55461" lon="5.79958">
        <ele>743.72</ele>
        <time>2013-07-26T14:11:50Z</time>
      </trkpt>
      <trkpt lat="46.55459" lon="5.79952">
        <ele>743.72</ele>
        <time>2013-07-26T14:11:53Z</time>
      </trkpt>
      <trkpt lat="46.55447" lon="5.7993">
        <ele>745.64</ele>
        <time>2013-07-26T14:12:03Z</time>
      </trkpt>
      <trkpt lat="46.55426" lon="5.79896">
        <ele>747.56</ele>
        <time>2013-07-26T14:12:15Z</time>
      </trkpt>
      <trkpt lat="46.55408" lon="5.7989">
        <ele>748.52</ele>
        <time>2013-07-26T14:12:23Z</time>
      </trkpt>
      <trkpt lat="46.55395" lon="5.79888">
        <ele>749</ele>
        <time>2013-07-26T14:12:31Z</time>
      </trkpt>
      <trkpt lat="46.55361" lon="5.79893">
        <ele>748.52</ele>
        <time>2013-07-26T14:12:44Z</time>
      </trkpt>
      <trkpt lat="46.55329" lon="5.7987">
        <ele>748.04</ele>
        <time>2013-07-26T14:12:53Z</time>
      </trkpt>
      <trkpt lat="46.55327" lon="5.79857">
        <ele>748.52</ele>
        <time>2013-07-26T14:12:57Z</time>
      </trkpt>
      <trkpt lat="46.5533" lon="5.79845">
        <ele>749.49</ele>
        <time>2013-07-26T14:13:01Z</time>
      </trkpt>
      <trkpt lat="46.55335" lon="5.7981">
        <ele>750.45</ele>
        <time>2013-07-26T14:13:11Z</time>
      </trkpt>
      <trkpt lat="46.55342" lon="5.79772">
        <ele>752.85</ele>
        <time>2013-07-26T14:13:22Z</time>
      </trkpt>
      <trkpt lat="46.55342" lon="5.79719">
        <ele>749.49</ele>
        <time>2013-07-26T14:13:34Z</time>
      </trkpt>
      <trkpt lat="46.55334" lon="5.79705">
        <ele>752.85</ele>
        <time>2013-07-26T14:13:37Z</time>
      </trkpt>
      <trkpt lat="46.55318" lon="5.79681">
        <ele>749.49</ele>
        <time>2013-07-26T14:13:43Z</time>
      </trkpt>
      <trkpt lat="46.55303" lon="5.7966">
        <ele>747.56</ele>
        <time>2013-07-26T14:13:47Z</time>
      </trkpt>
      <trkpt lat="46.55284" lon="5.79638">
        <ele>746.12</ele>
        <time>2013-07-26T14:13:51Z</time>
      </trkpt>
      <trkpt lat="46.55248" lon="5.79588">
        <ele>744.2</ele>
        <time>2013-07-26T14:13:58Z</time>
      </trkpt>
      <trkpt lat="46.55206" lon="5.79538">
        <ele>742.76</ele>
        <time>2013-07-26T14:14:05Z</time>
      </trkpt>
      <trkpt lat="46.55195" lon="5.79524">
        <ele>741.79</ele>
        <time>2013-07-26T14:14:07Z</time>
      </trkpt>
      <trkpt lat="46.55134" lon="5.79455">
        <ele>738.43</ele>
        <time>2013-07-26T14:14:17Z</time>
      </trkpt>
      <trkpt lat="46.55115" lon="5.79436">
        <ele>737.47</ele>
        <time>2013-07-26T14:14:20Z</time>
      </trkpt>
      <trkpt lat="46.55102" lon="5.79422">
        <ele>736.51</ele>
        <time>2013-07-26T14:14:22Z</time>
      </trkpt>
      <trkpt lat="46.55088" lon="5.79406">
        <ele>733.14</ele>
        <time>2013-07-26T14:14:24Z</time>
      </trkpt>
      <trkpt lat="46.55069" lon="5.79387">
        <ele>730.74</ele>
        <time>2013-07-26T14:14:27Z</time>
      </trkpt>
      <trkpt lat="46.55052" lon="5.79377">
        <ele>728.82</ele>
        <time>2013-07-26T14:14:30Z</time>
      </trkpt>
      <trkpt lat="46.5502" lon="5.79383">
        <ele>726.41</ele>
        <time>2013-07-26T14:14:34Z</time>
      </trkpt>
      <trkpt lat="46.5499" lon="5.79396">
        <ele>725.93</ele>
        <time>2013-07-26T14:14:38Z</time>
      </trkpt>
      <trkpt lat="46.54929" lon="5.79378">
        <ele>723.53</ele>
        <time>2013-07-26T14:14:47Z</time>
      </trkpt>
      <trkpt lat="46.54875" lon="5.79354">
        <ele>721.13</ele>
        <time>2013-07-26T14:14:57Z</time>
      </trkpt>
      <trkpt lat="46.54869" lon="5.79316">
        <ele>721.61</ele>
        <time>2013-07-26T14:15:09Z</time>
      </trkpt>
      <trkpt lat="46.54878" lon="5.79281">
        <ele>722.57</ele>
        <time>2013-07-26T14:15:21Z</time>
      </trkpt>
      <trkpt lat="46.54877" lon="5.79275">
        <ele>723.53</ele>
        <time>2013-07-26T14:15:23Z</time>
      </trkpt>
      <trkpt lat="46.5485" lon="5.79224">
        <ele>724.97</ele>
        <time>2013-07-26T14:15:36Z</time>
      </trkpt>
      <trkpt lat="46.54826" lon="5.79181">
        <ele>726.41</ele>
        <time>2013-07-26T14:15:50Z</time>
      </trkpt>
      <trkpt lat="46.548" lon="5.79139">
        <ele>727.86</ele>
        <time>2013-07-26T14:16:04Z</time>
      </trkpt>
      <trkpt lat="46.54786" lon="5.79116">
        <ele>727.86</ele>
        <time>2013-07-26T14:16:14Z</time>
      </trkpt>
      <trkpt lat="46.5478" lon="5.79118">
        <ele>726.89</ele>
        <time>2013-07-26T14:16:18Z</time>
      </trkpt>
      <trkpt lat="46.54789" lon="5.79123">
        <ele>726.89</ele>
        <time>2013-07-26T14:16:30Z</time>
      </trkpt>
      <trkpt lat="46.54787" lon="5.79124">
        <ele>727.37</ele>
        <time>2013-07-26T14:16:37Z</time>
      </trkpt>
      <trkpt lat="46.54783" lon="5.79114">
        <ele>726.89</ele>
        <time>2013-07-26T14:16:42Z</time>
      </trkpt>
      <trkpt lat="46.5478" lon="5.79108">
        <ele>727.37</ele>
        <time>2013-07-26T14:16:45Z</time>
      </trkpt>
      <trkpt lat="46.54781" lon="5.79099">
        <ele>726.41</ele>
        <time>2013-07-26T14:16:58Z</time>
      </trkpt>
      <trkpt lat="46.54793" lon="5.79103">
        <ele>726.89</ele>
        <time>2013-07-26T14:17:38Z</time>
      </trkpt>
      <trkpt lat="46.54785" lon="5.79102">
        <ele>726.41</ele>
        <time>2013-07-26T14:18:10Z</time>
      </trkpt>
      <trkpt lat="46.54786" lon="5.79104">
        <ele>724.97</ele>
        <time>2013-07-26T14:18:55Z</time>
      </trkpt>
      <trkpt lat="46.54787" lon="5.79103">
        <ele>725.93</ele>
        <time>2013-07-26T14:19:28Z</time>
      </trkpt>
      <trkpt lat="46.54787" lon="5.79104">
        <ele>725.45</ele>
        <time>2013-07-26T14:20:03Z</time>
      </trkpt>
      <trkpt lat="46.54788" lon="5.79106">
        <ele>725.93</ele>
        <time>2013-07-26T14:20:43Z</time>
      </trkpt>
      <trkpt lat="46.54784" lon="5.79105">
        <ele>725.93</ele>
        <time>2013-07-26T14:20:45Z</time>
      </trkpt>
      <trkpt lat="46.54779" lon="5.79088">
        <ele>725.45</ele>
        <time>2013-07-26T14:20:50Z</time>
      </trkpt>
      <trkpt lat="46.54779" lon="5.79075">
        <ele>725.45</ele>
        <time>2013-07-26T14:20:52Z</time>
      </trkpt>
      <trkpt lat="46.54762" lon="5.78975">
        <ele>724.01</ele>
        <time>2013-07-26T14:21:03Z</time>
      </trkpt>
      <trkpt lat="46.54743" lon="5.78854">
        <ele>722.09</ele>
        <time>2013-07-26T14:21:14Z</time>
      </trkpt>
      <trkpt lat="46.54742" lon="5.78834">
        <ele>722.09</ele>
        <time>2013-07-26T14:21:16Z</time>
      </trkpt>
      <trkpt lat="46.54744" lon="5.78803">
        <ele>721.61</ele>
        <time>2013-07-26T14:21:19Z</time>
      </trkpt>
      <trkpt lat="46.5476" lon="5.78749">
        <ele>722.57</ele>
        <time>2013-07-26T14:21:25Z</time>
      </trkpt>
      <trkpt lat="46.5479" lon="5.78721">
        <ele>723.05</ele>
        <time>2013-07-26T14:21:30Z</time>
      </trkpt>
      <trkpt lat="46.54818" lon="5.78707">
        <ele>724.01</ele>
        <time>2013-07-26T14:21:34Z</time>
      </trkpt>
      <trkpt lat="46.54905" lon="5.78687">
        <ele>724.97</ele>
        <time>2013-07-26T14:21:46Z</time>
      </trkpt>
      <trkpt lat="46.54945" lon="5.78673">
        <ele>725.93</ele>
        <time>2013-07-26T14:21:52Z</time>
      </trkpt>
      <trkpt lat="46.54998" lon="5.78606">
        <ele>726.41</ele>
        <time>2013-07-26T14:22:02Z</time>
      </trkpt>
      <trkpt lat="46.55009" lon="5.78488">
        <ele>726.41</ele>
        <time>2013-07-26T14:22:14Z</time>
      </trkpt>
      <trkpt lat="46.55009" lon="5.78478">
        <ele>726.41</ele>
        <time>2013-07-26T14:22:15Z</time>
      </trkpt>
      <trkpt lat="46.5501" lon="5.78459">
        <ele>726.89</ele>
        <time>2013-07-26T14:22:17Z</time>
      </trkpt>
      <trkpt lat="46.55016" lon="5.78431">
        <ele>725.93</ele>
        <time>2013-07-26T14:22:20Z</time>
      </trkpt>
      <trkpt lat="46.55027" lon="5.78392">
        <ele>724.97</ele>
        <time>2013-07-26T14:22:24Z</time>
      </trkpt>
      <trkpt lat="46.55048" lon="5.78318">
        <ele>723.53</ele>
        <time>2013-07-26T14:22:31Z</time>
      </trkpt>
      <trkpt lat="46.55055" lon="5.78235">
        <ele>722.09</ele>
        <time>2013-07-26T14:22:38Z</time>
      </trkpt>
      <trkpt lat="46.55077" lon="5.78176">
        <ele>720.16</ele>
        <time>2013-07-26T14:22:43Z</time>
      </trkpt>
      <trkpt lat="46.5513" lon="5.78068">
        <ele>717.76</ele>
        <time>2013-07-26T14:22:53Z</time>
      </trkpt>
      <trkpt lat="46.55172" lon="5.7794">
        <ele>714.4</ele>
        <time>2013-07-26T14:23:04Z</time>
      </trkpt>
      <trkpt lat="46.5523" lon="5.77814">
        <ele>711.03</ele>
        <time>2013-07-26T14:23:14Z</time>
      </trkpt>
      <trkpt lat="46.55238" lon="5.77804">
        <ele>711.51</ele>
        <time>2013-07-26T14:23:15Z</time>
      </trkpt>
      <trkpt lat="46.5525" lon="5.77793">
        <ele>710.55</ele>
        <time>2013-07-26T14:23:16Z</time>
      </trkpt>
      <trkpt lat="46.55324" lon="5.77754">
        <ele>708.63</ele>
        <time>2013-07-26T14:23:24Z</time>
      </trkpt>
      <trkpt lat="46.55362" lon="5.77726">
        <ele>706.23</ele>
        <time>2013-07-26T14:23:28Z</time>
      </trkpt>
      <trkpt lat="46.5541" lon="5.77685">
        <ele>704.3</ele>
        <time>2013-07-26T14:23:33Z</time>
      </trkpt>
      <trkpt lat="46.55445" lon="5.77672">
        <ele>703.34</ele>
        <time>2013-07-26T14:23:36Z</time>
      </trkpt>
      <trkpt lat="46.55472" lon="5.77656">
        <ele>701.42</ele>
        <time>2013-07-26T14:23:39Z</time>
      </trkpt>
      <trkpt lat="46.55498" lon="5.77611">
        <ele>700.46</ele>
        <time>2013-07-26T14:23:42Z</time>
      </trkpt>
      <trkpt lat="46.55515" lon="5.7757">
        <ele>698.53</ele>
        <time>2013-07-26T14:23:45Z</time>
      </trkpt>
      <trkpt lat="46.55573" lon="5.77471">
        <ele>695.65</ele>
        <time>2013-07-26T14:23:53Z</time>
      </trkpt>
      <trkpt lat="46.5559" lon="5.77413">
        <ele>693.73</ele>
        <time>2013-07-26T14:23:57Z</time>
      </trkpt>
      <trkpt lat="46.55619" lon="5.77368">
        <ele>691.81</ele>
        <time>2013-07-26T14:24:01Z</time>
      </trkpt>
      <trkpt lat="46.55648" lon="5.77343">
        <ele>690.36</ele>
        <time>2013-07-26T14:24:04Z</time>
      </trkpt>
      <trkpt lat="46.55662" lon="5.77326">
        <ele>689.88</ele>
        <time>2013-07-26T14:24:06Z</time>
      </trkpt>
      <trkpt lat="46.5567" lon="5.77314">
        <ele>689.88</ele>
        <time>2013-07-26T14:24:07Z</time>
      </trkpt>
      <trkpt lat="46.55697" lon="5.77249">
        <ele>686.52</ele>
        <time>2013-07-26T14:24:11Z</time>
      </trkpt>
      <trkpt lat="46.5572" lon="5.77167">
        <ele>682.19</ele>
        <time>2013-07-26T14:24:18Z</time>
      </trkpt>
      <trkpt lat="46.55727" lon="5.77146">
        <ele>681.23</ele>
        <time>2013-07-26T14:24:20Z</time>
      </trkpt>
      <trkpt lat="46.55759" lon="5.77063">
        <ele>678.35</ele>
        <time>2013-07-26T14:24:27Z</time>
      </trkpt>
      <trkpt lat="46.55764" lon="5.7705">
        <ele>678.35</ele>
        <time>2013-07-26T14:24:28Z</time>
      </trkpt>
      <trkpt lat="46.55772" lon="5.77011">
        <ele>676.91</ele>
        <time>2013-07-26T14:24:31Z</time>
      </trkpt>
      <trkpt lat="46.55772" lon="5.76996">
        <ele>676.42</ele>
        <time>2013-07-26T14:24:32Z</time>
      </trkpt>
      <trkpt lat="46.55773" lon="5.76906">
        <ele>673.06</ele>
        <time>2013-07-26T14:24:38Z</time>
      </trkpt>
      <trkpt lat="46.55777" lon="5.76878">
        <ele>672.1</ele>
        <time>2013-07-26T14:24:40Z</time>
      </trkpt>
      <trkpt lat="46.55779" lon="5.76863">
        <ele>671.62</ele>
        <time>2013-07-26T14:24:41Z</time>
      </trkpt>
      <trkpt lat="46.55781" lon="5.76779">
        <ele>667.77</ele>
        <time>2013-07-26T14:24:47Z</time>
      </trkpt>
      <trkpt lat="46.55781" lon="5.76765">
        <ele>666.81</ele>
        <time>2013-07-26T14:24:48Z</time>
      </trkpt>
      <trkpt lat="46.55793" lon="5.76696">
        <ele>663.93</ele>
        <time>2013-07-26T14:24:53Z</time>
      </trkpt>
      <trkpt lat="46.55794" lon="5.76683">
        <ele>663.45</ele>
        <time>2013-07-26T14:24:54Z</time>
      </trkpt>
      <trkpt lat="46.55796" lon="5.76649">
        <ele>662.97</ele>
        <time>2013-07-26T14:24:56Z</time>
      </trkpt>
      <trkpt lat="46.55794" lon="5.76637">
        <ele>662.49</ele>
        <time>2013-07-26T14:24:57Z</time>
      </trkpt>
      <trkpt lat="46.55791" lon="5.76628">
        <ele>661.04</ele>
        <time>2013-07-26T14:24:58Z</time>
      </trkpt>
      <trkpt lat="46.55773" lon="5.76615">
        <ele>660.56</ele>
        <time>2013-07-26T14:25:02Z</time>
      </trkpt>
      <trkpt lat="46.55762" lon="5.76614">
        <ele>661.04</ele>
        <time>2013-07-26T14:25:04Z</time>
      </trkpt>
      <trkpt lat="46.55757" lon="5.76618">
        <ele>661.52</ele>
        <time>2013-07-26T14:25:05Z</time>
      </trkpt>
      <trkpt lat="46.55684" lon="5.76625">
        <ele>661.04</ele>
        <time>2013-07-26T14:25:16Z</time>
      </trkpt>
      <trkpt lat="46.55677" lon="5.76625">
        <ele>661.04</ele>
        <time>2013-07-26T14:25:17Z</time>
      </trkpt>
      <trkpt lat="46.55637" lon="5.76646">
        <ele>659.6</ele>
        <time>2013-07-26T14:25:23Z</time>
      </trkpt>
      <trkpt lat="46.55534" lon="5.76711">
        <ele>658.64</ele>
        <time>2013-07-26T14:25:38Z</time>
      </trkpt>
      <trkpt lat="46.55424" lon="5.76783">
        <ele>656.24</ele>
        <time>2013-07-26T14:25:54Z</time>
      </trkpt>
      <trkpt lat="46.55418" lon="5.76791">
        <ele>656.24</ele>
        <time>2013-07-26T14:25:55Z</time>
      </trkpt>
      <trkpt lat="46.55398" lon="5.76833">
        <ele>654.8</ele>
        <time>2013-07-26T14:26:00Z</time>
      </trkpt>
      <trkpt lat="46.55365" lon="5.76938">
        <ele>654.8</ele>
        <time>2013-07-26T14:26:13Z</time>
      </trkpt>
      <trkpt lat="46.55331" lon="5.76974">
        <ele>653.83</ele>
        <time>2013-07-26T14:26:21Z</time>
      </trkpt>
      <trkpt lat="46.5532" lon="5.76983">
        <ele>653.35</ele>
        <time>2013-07-26T14:26:29Z</time>
      </trkpt>
      <trkpt lat="46.55319" lon="5.76987">
        <ele>652.39</ele>
        <time>2013-07-26T14:26:44Z</time>
      </trkpt>
      <trkpt lat="46.55321" lon="5.76993">
        <ele>651.91</ele>
        <time>2013-07-26T14:27:19Z</time>
      </trkpt>
      <trkpt lat="46.55319" lon="5.76988">
        <ele>652.39</ele>
        <time>2013-07-26T14:27:45Z</time>
      </trkpt>
      <trkpt lat="46.55313" lon="5.76955">
        <ele>649.03</ele>
        <time>2013-07-26T14:27:53Z</time>
      </trkpt>
      <trkpt lat="46.55307" lon="5.76942">
        <ele>647.1</ele>
        <time>2013-07-26T14:28:00Z</time>
      </trkpt>
      <trkpt lat="46.55304" lon="5.76935">
        <ele>647.59</ele>
        <time>2013-07-26T14:28:11Z</time>
      </trkpt>
      <trkpt lat="46.55296" lon="5.76927">
        <ele>648.07</ele>
        <time>2013-07-26T14:28:21Z</time>
      </trkpt>
      <trkpt lat="46.55269" lon="5.76913">
        <ele>648.55</ele>
        <time>2013-07-26T14:28:32Z</time>
      </trkpt>
      <trkpt lat="46.55251" lon="5.76917">
        <ele>647.1</ele>
        <time>2013-07-26T14:28:37Z</time>
      </trkpt>
      <trkpt lat="46.5524" lon="5.7693">
        <ele>646.14</ele>
        <time>2013-07-26T14:28:41Z</time>
      </trkpt>
      <trkpt lat="46.55218" lon="5.7695">
        <ele>644.22</ele>
        <time>2013-07-26T14:28:51Z</time>
      </trkpt>
      <trkpt lat="46.55216" lon="5.7695">
        <ele>644.7</ele>
        <time>2013-07-26T14:28:53Z</time>
      </trkpt>
      <trkpt lat="46.55196" lon="5.7694">
        <ele>640.86</ele>
        <time>2013-07-26T14:29:00Z</time>
      </trkpt>
      <trkpt lat="46.55192" lon="5.76939">
        <ele>640.86</ele>
        <time>2013-07-26T14:29:01Z</time>
      </trkpt>
      <trkpt lat="46.5515" lon="5.76943">
        <ele>639.89</ele>
        <time>2013-07-26T14:29:12Z</time>
      </trkpt>
      <trkpt lat="46.5512" lon="5.76949">
        <ele>642.3</ele>
        <time>2013-07-26T14:29:23Z</time>
      </trkpt>
      <trkpt lat="46.55089" lon="5.76955">
        <ele>642.78</ele>
        <time>2013-07-26T14:29:34Z</time>
      </trkpt>
      <trkpt lat="46.55057" lon="5.76947">
        <ele>644.22</ele>
        <time>2013-07-26T14:29:47Z</time>
      </trkpt>
      <trkpt lat="46.55035" lon="5.7693">
        <ele>647.1</ele>
        <time>2013-07-26T14:29:59Z</time>
      </trkpt>
      <trkpt lat="46.55012" lon="5.76905">
        <ele>649.51</ele>
        <time>2013-07-26T14:30:13Z</time>
      </trkpt>
      <trkpt lat="46.55002" lon="5.76884">
        <ele>652.39</ele>
        <time>2013-07-26T14:30:21Z</time>
      </trkpt>
      <trkpt lat="46.54986" lon="5.76852">
        <ele>653.83</ele>
        <time>2013-07-26T14:30:34Z</time>
      </trkpt>
      <trkpt lat="46.54958" lon="5.7682">
        <ele>656.24</ele>
        <time>2013-07-26T14:30:50Z</time>
      </trkpt>
      <trkpt lat="46.54937" lon="5.76805">
        <ele>658.16</ele>
        <time>2013-07-26T14:31:04Z</time>
      </trkpt>
      <trkpt lat="46.54912" lon="5.7678">
        <ele>658.16</ele>
        <time>2013-07-26T14:31:18Z</time>
      </trkpt>
      <trkpt lat="46.54882" lon="5.76746">
        <ele>656.24</ele>
        <time>2013-07-26T14:31:33Z</time>
      </trkpt>
      <trkpt lat="46.5488" lon="5.76744">
        <ele>657.68</ele>
        <time>2013-07-26T14:31:44Z</time>
      </trkpt>
      <trkpt lat="46.54882" lon="5.76748">
        <ele>655.76</ele>
        <time>2013-07-26T14:32:15Z</time>
      </trkpt>
      <trkpt lat="46.54885" lon="5.76745">
        <ele>656.24</ele>
        <time>2013-07-26T14:32:47Z</time>
      </trkpt>
      <trkpt lat="46.54883" lon="5.76746">
        <ele>656.24</ele>
        <time>2013-07-26T14:33:13Z</time>
      </trkpt>
      <trkpt lat="46.54883" lon="5.76743">
        <ele>655.76</ele>
        <time>2013-07-26T14:33:44Z</time>
      </trkpt>
      <trkpt lat="46.54888" lon="5.76743">
        <ele>655.28</ele>
        <time>2013-07-26T14:34:10Z</time>
      </trkpt>
      <trkpt lat="46.54885" lon="5.76742">
        <ele>655.76</ele>
        <time>2013-07-26T14:34:44Z</time>
      </trkpt>
      <trkpt lat="46.54881" lon="5.76741">
        <ele>655.28</ele>
        <time>2013-07-26T14:35:05Z</time>
      </trkpt>
      <trkpt lat="46.5487" lon="5.76733">
        <ele>654.8</ele>
        <time>2013-07-26T14:35:11Z</time>
      </trkpt>
      <trkpt lat="46.5484" lon="5.76691">
        <ele>652.87</ele>
        <time>2013-07-26T14:35:21Z</time>
      </trkpt>
      <trkpt lat="46.54825" lon="5.76636">
        <ele>649.51</ele>
        <time>2013-07-26T14:35:28Z</time>
      </trkpt>
      <trkpt lat="46.54804" lon="5.76586">
        <ele>645.66</ele>
        <time>2013-07-26T14:35:33Z</time>
      </trkpt>
      <trkpt lat="46.54801" lon="5.76578">
        <ele>645.18</ele>
        <time>2013-07-26T14:35:34Z</time>
      </trkpt>
      <trkpt lat="46.54798" lon="5.76565">
        <ele>644.22</ele>
        <time>2013-07-26T14:35:36Z</time>
      </trkpt>
      <trkpt lat="46.54798" lon="5.76533">
        <ele>642.3</ele>
        <time>2013-07-26T14:35:40Z</time>
      </trkpt>
      <trkpt lat="46.54799" lon="5.7652">
        <ele>640.86</ele>
        <time>2013-07-26T14:35:42Z</time>
      </trkpt>
      <trkpt lat="46.548" lon="5.7651">
        <ele>639.89</ele>
        <time>2013-07-26T14:35:43Z</time>
      </trkpt>
      <trkpt lat="46.54804" lon="5.76498">
        <ele>638.93</ele>
        <time>2013-07-26T14:35:44Z</time>
      </trkpt>
      <trkpt lat="46.54834" lon="5.76455">
        <ele>637.49</ele>
        <time>2013-07-26T14:35:51Z</time>
      </trkpt>
      <trkpt lat="46.54858" lon="5.76416">
        <ele>635.57</ele>
        <time>2013-07-26T14:35:58Z</time>
      </trkpt>
      <trkpt lat="46.54859" lon="5.764">
        <ele>633.17</ele>
        <time>2013-07-26T14:36:00Z</time>
      </trkpt>
      <trkpt lat="46.54859" lon="5.76378">
        <ele>633.17</ele>
        <time>2013-07-26T14:36:02Z</time>
      </trkpt>
      <trkpt lat="46.54862" lon="5.7636">
        <ele>632.2</ele>
        <time>2013-07-26T14:36:04Z</time>
      </trkpt>
      <trkpt lat="46.54871" lon="5.76331">
        <ele>630.76</ele>
        <time>2013-07-26T14:36:08Z</time>
      </trkpt>
      <trkpt lat="46.54874" lon="5.76314">
        <ele>631.24</ele>
        <time>2013-07-26T14:36:10Z</time>
      </trkpt>
      <trkpt lat="46.54871" lon="5.76295">
        <ele>631.24</ele>
        <time>2013-07-26T14:36:13Z</time>
      </trkpt>
      <trkpt lat="46.54874" lon="5.76271">
        <ele>631.24</ele>
        <time>2013-07-26T14:36:17Z</time>
      </trkpt>
      <trkpt lat="46.54877" lon="5.76258">
        <ele>631.24</ele>
        <time>2013-07-26T14:36:19Z</time>
      </trkpt>
      <trkpt lat="46.54879" lon="5.76251">
        <ele>631.24</ele>
        <time>2013-07-26T14:36:20Z</time>
      </trkpt>
      <trkpt lat="46.5489" lon="5.76209">
        <ele>631.72</ele>
        <time>2013-07-26T14:36:26Z</time>
      </trkpt>
      <trkpt lat="46.54892" lon="5.76185">
        <ele>631.24</ele>
        <time>2013-07-26T14:36:30Z</time>
      </trkpt>
      <trkpt lat="46.54887" lon="5.76159">
        <ele>630.76</ele>
        <time>2013-07-26T14:36:34Z</time>
      </trkpt>
      <trkpt lat="46.54886" lon="5.76133">
        <ele>629.32</ele>
        <time>2013-07-26T14:36:37Z</time>
      </trkpt>
      <trkpt lat="46.54888" lon="5.76098">
        <ele>626.44</ele>
        <time>2013-07-26T14:36:45Z</time>
      </trkpt>
      <trkpt lat="46.54887" lon="5.76098">
        <ele>626.92</ele>
        <time>2013-07-26T14:36:46Z</time>
      </trkpt>
      <trkpt lat="46.54879" lon="5.76105">
        <ele>627.4</ele>
        <time>2013-07-26T14:37:00Z</time>
      </trkpt>
      <trkpt lat="46.54879" lon="5.76104">
        <ele>626.92</ele>
        <time>2013-07-26T14:37:12Z</time>
      </trkpt>
      <trkpt lat="46.54885" lon="5.7609">
        <ele>625.96</ele>
        <time>2013-07-26T14:37:16Z</time>
      </trkpt>
      <trkpt lat="46.54884" lon="5.76058">
        <ele>624.03</ele>
        <time>2013-07-26T14:37:20Z</time>
      </trkpt>
      <trkpt lat="46.54876" lon="5.7601">
        <ele>620.67</ele>
        <time>2013-07-26T14:37:25Z</time>
      </trkpt>
      <trkpt lat="46.54877" lon="5.75994">
        <ele>621.15</ele>
        <time>2013-07-26T14:37:26Z</time>
      </trkpt>
      <trkpt lat="46.5488" lon="5.75957">
        <ele>622.59</ele>
        <time>2013-07-26T14:37:36Z</time>
      </trkpt>
      <trkpt lat="46.54876" lon="5.75938">
        <ele>623.55</ele>
        <time>2013-07-26T14:37:41Z</time>
      </trkpt>
      <trkpt lat="46.54873" lon="5.75926">
        <ele>623.55</ele>
        <time>2013-07-26T14:37:44Z</time>
      </trkpt>
      <trkpt lat="46.54865" lon="5.75901">
        <ele>623.55</ele>
        <time>2013-07-26T14:37:50Z</time>
      </trkpt>
      <trkpt lat="46.54865" lon="5.75887">
        <ele>624.03</ele>
        <time>2013-07-26T14:37:53Z</time>
      </trkpt>
      <trkpt lat="46.54868" lon="5.75873">
        <ele>623.55</ele>
        <time>2013-07-26T14:37:57Z</time>
      </trkpt>
      <trkpt lat="46.54864" lon="5.75848">
        <ele>622.59</ele>
        <time>2013-07-26T14:38:01Z</time>
      </trkpt>
      <trkpt lat="46.54861" lon="5.75835">
        <ele>623.07</ele>
        <time>2013-07-26T14:38:03Z</time>
      </trkpt>
      <trkpt lat="46.5486" lon="5.75804">
        <ele>622.11</ele>
        <time>2013-07-26T14:38:07Z</time>
      </trkpt>
      <trkpt lat="46.54836" lon="5.75757">
        <ele>622.11</ele>
        <time>2013-07-26T14:38:15Z</time>
      </trkpt>
      <trkpt lat="46.548" lon="5.75777">
        <ele>624.03</ele>
        <time>2013-07-26T14:38:27Z</time>
      </trkpt>
      <trkpt lat="46.54772" lon="5.75807">
        <ele>624.03</ele>
        <time>2013-07-26T14:38:36Z</time>
      </trkpt>
      <trkpt lat="46.54741" lon="5.75852">
        <ele>623.55</ele>
        <time>2013-07-26T14:38:48Z</time>
      </trkpt>
      <trkpt lat="46.54715" lon="5.75891">
        <ele>624.51</ele>
        <time>2013-07-26T14:38:57Z</time>
      </trkpt>
      <trkpt lat="46.54698" lon="5.75918">
        <ele>625.47</ele>
        <time>2013-07-26T14:39:07Z</time>
      </trkpt>
      <trkpt lat="46.54677" lon="5.7596">
        <ele>624.51</ele>
        <time>2013-07-26T14:39:16Z</time>
      </trkpt>
      <trkpt lat="46.54664" lon="5.75978">
        <ele>624.99</ele>
        <time>2013-07-26T14:39:21Z</time>
      </trkpt>
      <trkpt lat="46.54632" lon="5.75974">
        <ele>625.47</ele>
        <time>2013-07-26T14:39:32Z</time>
      </trkpt>
      <trkpt lat="46.54623" lon="5.75958">
        <ele>625.47</ele>
        <time>2013-07-26T14:39:36Z</time>
      </trkpt>
      <trkpt lat="46.54611" lon="5.75849">
        <ele>624.51</ele>
        <time>2013-07-26T14:39:53Z</time>
      </trkpt>
      <trkpt lat="46.5461" lon="5.75843">
        <ele>623.55</ele>
        <time>2013-07-26T14:39:54Z</time>
      </trkpt>
      <trkpt lat="46.5459" lon="5.75764">
        <ele>622.59</ele>
        <time>2013-07-26T14:40:06Z</time>
      </trkpt>
      <trkpt lat="46.54586" lon="5.75746">
        <ele>621.63</ele>
        <time>2013-07-26T14:40:08Z</time>
      </trkpt>
      <trkpt lat="46.54565" lon="5.75719">
        <ele>619.71</ele>
        <time>2013-07-26T14:40:12Z</time>
      </trkpt>
      <trkpt lat="46.54555" lon="5.75708">
        <ele>619.71</ele>
        <time>2013-07-26T14:40:14Z</time>
      </trkpt>
      <trkpt lat="46.54537" lon="5.7568">
        <ele>619.71</ele>
        <time>2013-07-26T14:40:18Z</time>
      </trkpt>
      <trkpt lat="46.54519" lon="5.75634">
        <ele>618.26</ele>
        <time>2013-07-26T14:40:25Z</time>
      </trkpt>
      <trkpt lat="46.5452" lon="5.7563">
        <ele>617.78</ele>
        <time>2013-07-26T14:40:35Z</time>
      </trkpt>
      <trkpt lat="46.5452" lon="5.75631">
        <ele>617.3</ele>
        <time>2013-07-26T14:41:10Z</time>
      </trkpt>
      <trkpt lat="46.5452" lon="5.75632">
        <ele>616.82</ele>
        <time>2013-07-26T14:41:59Z</time>
      </trkpt>
      <trkpt lat="46.5452" lon="5.75633">
        <ele>616.82</ele>
        <time>2013-07-26T14:42:08Z</time>
      </trkpt>
      <trkpt lat="46.54537" lon="5.75591">
        <ele>617.3</ele>
        <time>2013-07-26T14:42:19Z</time>
      </trkpt>
      <trkpt lat="46.54546" lon="5.75538">
        <ele>617.78</ele>
        <time>2013-07-26T14:42:28Z</time>
      </trkpt>
      <trkpt lat="46.54573" lon="5.75503">
        <ele>618.26</ele>
        <time>2013-07-26T14:42:39Z</time>
      </trkpt>
      <trkpt lat="46.54593" lon="5.75466">
        <ele>620.19</ele>
        <time>2013-07-26T14:42:52Z</time>
      </trkpt>
      <trkpt lat="46.54612" lon="5.75418">
        <ele>622.11</ele>
        <time>2013-07-26T14:43:06Z</time>
      </trkpt>
      <trkpt lat="46.54592" lon="5.75371">
        <ele>621.15</ele>
        <time>2013-07-26T14:43:17Z</time>
      </trkpt>
      <trkpt lat="46.54587" lon="5.75341">
        <ele>619.71</ele>
        <time>2013-07-26T14:43:21Z</time>
      </trkpt>
      <trkpt lat="46.54589" lon="5.75323">
        <ele>620.19</ele>
        <time>2013-07-26T14:43:23Z</time>
      </trkpt>
      <trkpt lat="46.54597" lon="5.75289">
        <ele>617.78</ele>
        <time>2013-07-26T14:43:27Z</time>
      </trkpt>
      <trkpt lat="46.54602" lon="5.75272">
        <ele>616.34</ele>
        <time>2013-07-26T14:43:29Z</time>
      </trkpt>
      <trkpt lat="46.54595" lon="5.75215">
        <ele>612.98</ele>
        <time>2013-07-26T14:43:37Z</time>
      </trkpt>
      <trkpt lat="46.54591" lon="5.75212">
        <ele>612.98</ele>
        <time>2013-07-26T14:43:38Z</time>
      </trkpt>
      <trkpt lat="46.54584" lon="5.75177">
        <ele>610.57</ele>
        <time>2013-07-26T14:43:43Z</time>
      </trkpt>
      <trkpt lat="46.54584" lon="5.75055">
        <ele>609.13</ele>
        <time>2013-07-26T14:43:57Z</time>
      </trkpt>
      <trkpt lat="46.54603" lon="5.75027">
        <ele>609.61</ele>
        <time>2013-07-26T14:44:04Z</time>
      </trkpt>
      <trkpt lat="46.54607" lon="5.75024">
        <ele>609.61</ele>
        <time>2013-07-26T14:44:06Z</time>
      </trkpt>
      <trkpt lat="46.54641" lon="5.7501">
        <ele>612.02</ele>
        <time>2013-07-26T14:44:18Z</time>
      </trkpt>
      <trkpt lat="46.54674" lon="5.74988">
        <ele>613.94</ele>
        <time>2013-07-26T14:44:30Z</time>
      </trkpt>
      <trkpt lat="46.54713" lon="5.74969">
        <ele>615.38</ele>
        <time>2013-07-26T14:44:44Z</time>
      </trkpt>
      <trkpt lat="46.54751" lon="5.74941">
        <ele>616.82</ele>
        <time>2013-07-26T14:44:58Z</time>
      </trkpt>
      <trkpt lat="46.54784" lon="5.74925">
        <ele>617.78</ele>
        <time>2013-07-26T14:45:12Z</time>
      </trkpt>
      <trkpt lat="46.5482" lon="5.74915">
        <ele>619.23</ele>
        <time>2013-07-26T14:45:25Z</time>
      </trkpt>
      <trkpt lat="46.5487" lon="5.74902">
        <ele>618.26</ele>
        <time>2013-07-26T14:45:37Z</time>
      </trkpt>
      <trkpt lat="46.54902" lon="5.74898">
        <ele>617.3</ele>
        <time>2013-07-26T14:45:43Z</time>
      </trkpt>
      <trkpt lat="46.54922" lon="5.74885">
        <ele>616.34</ele>
        <time>2013-07-26T14:45:47Z</time>
      </trkpt>
      <trkpt lat="46.54959" lon="5.74851">
        <ele>614.9</ele>
        <time>2013-07-26T14:45:54Z</time>
      </trkpt>
      <trkpt lat="46.55017" lon="5.7483">
        <ele>612.98</ele>
        <time>2013-07-26T14:46:03Z</time>
      </trkpt>
      <trkpt lat="46.5503" lon="5.74828">
        <ele>612.02</ele>
        <time>2013-07-26T14:46:05Z</time>
      </trkpt>
      <trkpt lat="46.55056" lon="5.74829">
        <ele>610.57</ele>
        <time>2013-07-26T14:46:09Z</time>
      </trkpt>
      <trkpt lat="46.55075" lon="5.74827">
        <ele>609.13</ele>
        <time>2013-07-26T14:46:13Z</time>
      </trkpt>
      <trkpt lat="46.55089" lon="5.7482">
        <ele>608.17</ele>
        <time>2013-07-26T14:46:16Z</time>
      </trkpt>
      <trkpt lat="46.55106" lon="5.7481">
        <ele>606.73</ele>
        <time>2013-07-26T14:46:19Z</time>
      </trkpt>
      <trkpt lat="46.55117" lon="5.74805">
        <ele>605.29</ele>
        <time>2013-07-26T14:46:21Z</time>
      </trkpt>
      <trkpt lat="46.55123" lon="5.74804">
        <ele>604.33</ele>
        <time>2013-07-26T14:46:22Z</time>
      </trkpt>
      <trkpt lat="46.55154" lon="5.74797">
        <ele>601.92</ele>
        <time>2013-07-26T14:46:27Z</time>
      </trkpt>
      <trkpt lat="46.55166" lon="5.74793">
        <ele>601.92</ele>
        <time>2013-07-26T14:46:29Z</time>
      </trkpt>
      <trkpt lat="46.55183" lon="5.74783">
        <ele>600.48</ele>
        <time>2013-07-26T14:46:32Z</time>
      </trkpt>
      <trkpt lat="46.55241" lon="5.74787">
        <ele>598.56</ele>
        <time>2013-07-26T14:46:42Z</time>
      </trkpt>
      <trkpt lat="46.5529" lon="5.74788">
        <ele>594.71</ele>
        <time>2013-07-26T14:46:51Z</time>
      </trkpt>
      <trkpt lat="46.55296" lon="5.74787">
        <ele>593.75</ele>
        <time>2013-07-26T14:46:52Z</time>
      </trkpt>
      <trkpt lat="46.55308" lon="5.74783">
        <ele>592.79</ele>
        <time>2013-07-26T14:46:54Z</time>
      </trkpt>
      <trkpt lat="46.5532" lon="5.74779">
        <ele>591.83</ele>
        <time>2013-07-26T14:46:56Z</time>
      </trkpt>
      <trkpt lat="46.55326" lon="5.74777">
        <ele>590.87</ele>
        <time>2013-07-26T14:46:57Z</time>
      </trkpt>
      <trkpt lat="46.55339" lon="5.74776">
        <ele>590.87</ele>
        <time>2013-07-26T14:47:07Z</time>
      </trkpt>
      <trkpt lat="46.5534" lon="5.74775">
        <ele>589.91</ele>
        <time>2013-07-26T14:47:32Z</time>
      </trkpt>
      <trkpt lat="46.55342" lon="5.74771">
        <ele>589.91</ele>
        <time>2013-07-26T14:48:04Z</time>
      </trkpt>
      <trkpt lat="46.55342" lon="5.7477">
        <ele>589.91</ele>
        <time>2013-07-26T14:48:34Z</time>
      </trkpt>
      <trkpt lat="46.55341" lon="5.74776">
        <ele>590.39</ele>
        <time>2013-07-26T14:49:13Z</time>
      </trkpt>
      <trkpt lat="46.55341" lon="5.7478">
        <ele>589.91</ele>
        <time>2013-07-26T14:49:54Z</time>
      </trkpt>
      <trkpt lat="46.55342" lon="5.74781">
        <ele>589.91</ele>
        <time>2013-07-26T14:50:12Z</time>
      </trkpt>
      <trkpt lat="46.55343" lon="5.74779">
        <ele>590.39</ele>
        <time>2013-07-26T14:50:14Z</time>
      </trkpt>
      <trkpt lat="46.55348" lon="5.74769">
        <ele>589.43</ele>
        <time>2013-07-26T14:50:18Z</time>
      </trkpt>
      <trkpt lat="46.55366" lon="5.74764">
        <ele>587.5</ele>
        <time>2013-07-26T14:50:24Z</time>
      </trkpt>
      <trkpt lat="46.5539" lon="5.74775">
        <ele>586.06</ele>
        <time>2013-07-26T14:50:29Z</time>
      </trkpt>
      <trkpt lat="46.55395" lon="5.74776">
        <ele>586.06</ele>
        <time>2013-07-26T14:50:30Z</time>
      </trkpt>
      <trkpt lat="46.55401" lon="5.74775">
        <ele>586.06</ele>
        <time>2013-07-26T14:50:31Z</time>
      </trkpt>
      <trkpt lat="46.55418" lon="5.74766">
        <ele>585.58</ele>
        <time>2013-07-26T14:50:34Z</time>
      </trkpt>
      <trkpt lat="46.55442" lon="5.74761">
        <ele>584.62</ele>
        <time>2013-07-26T14:50:38Z</time>
      </trkpt>
      <trkpt lat="46.55481" lon="5.74783">
        <ele>582.7</ele>
        <time>2013-07-26T14:50:47Z</time>
      </trkpt>
      <trkpt lat="46.55477" lon="5.74799">
        <ele>581.25</ele>
        <time>2013-07-26T14:50:50Z</time>
      </trkpt>
      <trkpt lat="46.55463" lon="5.7481">
        <ele>580.77</ele>
        <time>2013-07-26T14:50:53Z</time>
      </trkpt>
      <trkpt lat="46.55437" lon="5.74823">
        <ele>578.37</ele>
        <time>2013-07-26T14:50:57Z</time>
      </trkpt>
      <trkpt lat="46.55425" lon="5.74834">
        <ele>577.41</ele>
        <time>2013-07-26T14:50:59Z</time>
      </trkpt>
      <trkpt lat="46.5542" lon="5.7484">
        <ele>577.41</ele>
        <time>2013-07-26T14:51:00Z</time>
      </trkpt>
      <trkpt lat="46.55389" lon="5.74905">
        <ele>575.49</ele>
        <time>2013-07-26T14:51:08Z</time>
      </trkpt>
      <trkpt lat="46.5536" lon="5.74946">
        <ele>574.04</ele>
        <time>2013-07-26T14:51:13Z</time>
      </trkpt>
      <trkpt lat="46.55346" lon="5.74973">
        <ele>572.12</ele>
        <time>2013-07-26T14:51:16Z</time>
      </trkpt>
      <trkpt lat="46.55348" lon="5.75012">
        <ele>568.76</ele>
        <time>2013-07-26T14:51:23Z</time>
      </trkpt>
      <trkpt lat="46.55351" lon="5.75014">
        <ele>568.28</ele>
        <time>2013-07-26T14:51:24Z</time>
      </trkpt>
      <trkpt lat="46.55358" lon="5.75017">
        <ele>567.8</ele>
        <time>2013-07-26T14:51:26Z</time>
      </trkpt>
      <trkpt lat="46.55374" lon="5.75017">
        <ele>564.91</ele>
        <time>2013-07-26T14:51:30Z</time>
      </trkpt>
      <trkpt lat="46.55378" lon="5.75017">
        <ele>568.28</ele>
        <time>2013-07-26T14:51:31Z</time>
      </trkpt>
      <trkpt lat="46.55401" lon="5.75017">
        <ele>567.32</ele>
        <time>2013-07-26T14:51:36Z</time>
      </trkpt>
      <trkpt lat="46.55415" lon="5.75017">
        <ele>566.35</ele>
        <time>2013-07-26T14:51:39Z</time>
      </trkpt>
      <trkpt lat="46.55464" lon="5.75004">
        <ele>565.87</ele>
        <time>2013-07-26T14:51:48Z</time>
      </trkpt>
      <trkpt lat="46.5549" lon="5.75005">
        <ele>565.87</ele>
        <time>2013-07-26T14:51:53Z</time>
      </trkpt>
      <trkpt lat="46.55501" lon="5.75002">
        <ele>564.91</ele>
        <time>2013-07-26T14:51:55Z</time>
      </trkpt>
      <trkpt lat="46.55582" lon="5.74947">
        <ele>564.91</ele>
        <time>2013-07-26T14:52:08Z</time>
      </trkpt>
      <trkpt lat="46.55616" lon="5.74939">
        <ele>565.39</ele>
        <time>2013-07-26T14:52:17Z</time>
      </trkpt>
      <trkpt lat="46.55647" lon="5.74943">
        <ele>562.99</ele>
        <time>2013-07-26T14:52:23Z</time>
      </trkpt>
      <trkpt lat="46.55691" lon="5.74962">
        <ele>561.55</ele>
        <time>2013-07-26T14:52:31Z</time>
      </trkpt>
      <trkpt lat="46.55703" lon="5.7498">
        <ele>561.55</ele>
        <time>2013-07-26T14:52:41Z</time>
      </trkpt>
      <trkpt lat="46.55704" lon="5.74981">
        <ele>558.66</ele>
        <time>2013-07-26T14:52:49Z</time>
      </trkpt>
      <trkpt lat="46.55705" lon="5.7498">
        <ele>559.62</ele>
        <time>2013-07-26T14:52:53Z</time>
      </trkpt>
      <trkpt lat="46.55707" lon="5.7498">
        <ele>560.11</ele>
        <time>2013-07-26T14:53:12Z</time>
      </trkpt>
      <trkpt lat="46.55711" lon="5.74969">
        <ele>560.59</ele>
        <time>2013-07-26T14:53:18Z</time>
      </trkpt>
      <trkpt lat="46.55717" lon="5.74915">
        <ele>562.03</ele>
        <time>2013-07-26T14:53:31Z</time>
      </trkpt>
      <trkpt lat="46.55736" lon="5.74896">
        <ele>562.99</ele>
        <time>2013-07-26T14:53:38Z</time>
      </trkpt>
      <trkpt lat="46.55752" lon="5.74875">
        <ele>562.51</ele>
        <time>2013-07-26T14:53:42Z</time>
      </trkpt>
      <trkpt lat="46.5576" lon="5.74854">
        <ele>560.59</ele>
        <time>2013-07-26T14:53:45Z</time>
      </trkpt>
      <trkpt lat="46.55787" lon="5.74768">
        <ele>563.47</ele>
        <time>2013-07-26T14:53:59Z</time>
      </trkpt>
      <trkpt lat="46.55798" lon="5.74717">
        <ele>562.99</ele>
        <time>2013-07-26T14:54:08Z</time>
      </trkpt>
      <trkpt lat="46.55793" lon="5.74649">
        <ele>563.95</ele>
        <time>2013-07-26T14:54:21Z</time>
      </trkpt>
      <trkpt lat="46.55796" lon="5.7464">
        <ele>563.95</ele>
        <time>2013-07-26T14:54:23Z</time>
      </trkpt>
      <trkpt lat="46.55818" lon="5.74605">
        <ele>563.95</ele>
        <time>2013-07-26T14:54:30Z</time>
      </trkpt>
      <trkpt lat="46.55863" lon="5.7457">
        <ele>564.43</ele>
        <time>2013-07-26T14:54:44Z</time>
      </trkpt>
      <trkpt lat="46.55882" lon="5.74576">
        <ele>563.95</ele>
        <time>2013-07-26T14:54:54Z</time>
      </trkpt>
      <trkpt lat="46.55884" lon="5.7458">
        <ele>564.43</ele>
        <time>2013-07-26T14:55:12Z</time>
      </trkpt>
      <trkpt lat="46.55885" lon="5.74581">
        <ele>563.95</ele>
        <time>2013-07-26T14:55:35Z</time>
      </trkpt>
    </trkseg>
  </trk>
</gpx>